Wetterdaten: Samstag, 09.05.2015
Datum Zeit Temp. Aussen +5cm Feuchte Auss Luftdruck Regen Sonnenschein Regendauer Solar Windben
09.05.2015 00:00 14,2 C 12,2 C 76 % 1013,9 hPa 0,0 l/m 0 min 0 min 0 W/m 8,4 km/h (2 Bft)
09.05.2015 00:02 14,3 C 12,2 C 76 % 1013,9 hPa 0,0 l/m 0 min 0 min 0 W/m 10,5 km/h (2 Bft)
09.05.2015 00:06 14,4 C 12,2 C 76 % 1013,9 hPa 0,0 l/m 0 min 0 min 0 W/m 10,5 km/h (2 Bft)
09.05.2015 00:08 14,4 C 12,2 C 75 % 1013,9 hPa 0,0 l/m 0 min 0 min 0 W/m 10,5 km/h (2 Bft)
09.05.2015 00:10 14,5 C 12,8 C 75 % 1013,9 hPa 0,0 l/m 0 min 0 min 0 W/m 12,6 km/h (3 Bft)
09.05.2015 00:12 14,5 C 12,8 C 75 % 1013,8 hPa 0,0 l/m 0 min 0 min 0 W/m 10,5 km/h (2 Bft)
09.05.2015 00:14 14,6 C 12,8 C 75 % 1013,8 hPa 0,0 l/m 0 min 0 min 0 W/m 18,8 km/h (3 Bft)
09.05.2015 00:16 14,6 C 12,8 C 75 % 1013,8 hPa 0,0 l/m 0 min 0 min 0 W/m 14,6 km/h (3 Bft)
09.05.2015 00:18 14,7 C 12,8 C 75 % 1013,8 hPa 0,0 l/m 0 min 0 min 0 W/m 8,4 km/h (2 Bft)
09.05.2015 00:20 14,7 C 12,2 C 75 % 1013,8 hPa 0,0 l/m 0 min 0 min 0 W/m 8,4 km/h (2 Bft)
09.05.2015 00:22 14,8 C 12,2 C 75 % 1013,8 hPa 0,0 l/m 0 min 0 min 0 W/m 8,4 km/h (2 Bft)
09.05.2015 00:24 14,8 C 12,2 C 75 % 1013,7 hPa 0,0 l/m 0 min 0 min 0 W/m 6,3 km/h (2 Bft)
09.05.2015 00:26 14,8 C 12,2 C 75 % 1013,7 hPa 0,0 l/m 0 min 0 min 0 W/m 8,4 km/h (2 Bft)
09.05.2015 00:28 14,8 C 12,2 C 75 % 1013,8 hPa 0,0 l/m 0 min 0 min 0 W/m 12,6 km/h (3 Bft)
09.05.2015 00:30 14,9 C 12,2 C 74 % 1013,7 hPa 0,0 l/m 0 min 0 min 0 W/m 8,4 km/h (2 Bft)
09.05.2015 00:32 14,9 C 12,2 C 74 % 1013,8 hPa 0,0 l/m 0 min 0 min 0 W/m 10,5 km/h (2 Bft)
09.05.2015 00:34 14,9 C 12,2 C 74 % 1013,8 hPa 0,0 l/m 0 min 0 min 0 W/m 12,6 km/h (3 Bft)
09.05.2015 00:36 14,9 C 12,2 C 74 % 1013,8 hPa 0,0 l/m 0 min 0 min 0 W/m 10,5 km/h (2 Bft)
09.05.2015 00:38 14,9 C 12,2 C 74 % 1013,8 hPa 0,0 l/m 0 min 0 min 0 W/m 10,5 km/h (2 Bft)
09.05.2015 00:40 15,0 C 12,2 C 74 % 1013,8 hPa 0,0 l/m 0 min 0 min 0 W/m 10,5 km/h (2 Bft)
09.05.2015 00:42 15,0 C 12,2 C 74 % 1013,8 hPa 0,0 l/m 0 min 0 min 0 W/m 10,5 km/h (2 Bft)
09.05.2015 00:44 15,0 C 12,2 C 74 % 1013,9 hPa 0,0 l/m 0 min 0 min 0 W/m 14,6 km/h (3 Bft)
09.05.2015 00:46 15,0 C 12,2 C 74 % 1013,8 hPa 0,0 l/m 0 min 0 min 0 W/m 12,6 km/h (3 Bft)
09.05.2015 00:48 15,1 C 12,8 C 74 % 1013,9 hPa 0,0 l/m 0 min 0 min 0 W/m 10,5 km/h (2 Bft)
09.05.2015 00:50 15,1 C 12,8 C 74 % 1013,9 hPa 0,0 l/m 0 min 0 min 0 W/m 8,4 km/h (2 Bft)
09.05.2015 00:52 15,1 C 12,2 C 74 % 1013,9 hPa 0,0 l/m 0 min 0 min 0 W/m 10,5 km/h (2 Bft)
09.05.2015 00:54 15,1 C 12,2 C 74 % 1013,9 hPa 0,0 l/m 0 min 0 min 0 W/m 10,5 km/h (2 Bft)
09.05.2015 00:56 15,1 C 12,2 C 73 % 1013,9 hPa 0,0 l/m 0 min 0 min 0 W/m 12,6 km/h (3 Bft)
09.05.2015 00:58 15,1 C 12,2 C 73 % 1013,8 hPa 0,0 l/m 0 min 0 min 0 W/m 10,5 km/h (2 Bft)
09.05.2015 01:00 15,1 C 12,8 C 73 % 1013,8 hPa 0,0 l/m 0 min 0 min 0 W/m 12,6 km/h (3 Bft)
09.05.2015 01:02 15,1 C 12,8 C 73 % 1013,9 hPa 0,0 l/m 0 min 0 min 0 W/m 8,4 km/h (2 Bft)
09.05.2015 01:04 15,2 C 12,8 C 73 % 1013,9 hPa 0,0 l/m 0 min 0 min 0 W/m 8,4 km/h (2 Bft)
09.05.2015 01:06 15,2 C 12,8 C 73 % 1013,9 hPa 0,0 l/m 0 min 0 min 0 W/m 10,5 km/h (2 Bft)
09.05.2015 01:08 15,2 C 12,8 C 73 % 1013,9 hPa 0,0 l/m 0 min 0 min 0 W/m 14,6 km/h (3 Bft)
09.05.2015 01:10 15,2 C 12,8 C 73 % 1013,9 hPa 0,0 l/m 0 min 0 min 0 W/m 10,5 km/h (2 Bft)
09.05.2015 01:12 15,2 C 12,8 C 73 % 1013,9 hPa 0,0 l/m 0 min 0 min 0 W/m 6,3 km/h (2 Bft)
09.05.2015 01:14 15,2 C 12,8 C 73 % 1013,9 hPa 0,0 l/m 0 min 0 min 0 W/m 10,5 km/h (2 Bft)
09.05.2015 01:16 15,2 C 12,8 C 72 % 1013,9 hPa 0,0 l/m 0 min 0 min 0 W/m 8,4 km/h (2 Bft)
09.05.2015 01:18 15,2 C 12,8 C 72 % 1013,8 hPa 0,0 l/m 0 min 0 min 0 W/m 8,4 km/h (2 Bft)
09.05.2015 01:20 15,2 C 12,8 C 73 % 1013,8 hPa 0,0 l/m 0 min 0 min 0 W/m 6,3 km/h (2 Bft)
09.05.2015 01:22 15,2 C 12,8 C 72 % 1013,8 hPa 0,0 l/m 0 min 0 min 0 W/m 12,6 km/h (3 Bft)
09.05.2015 01:24 15,2 C 12,8 C 72 % 1013,8 hPa 0,0 l/m 0 min 0 min 0 W/m 10,5 km/h (2 Bft)
09.05.2015 01:26 15,2 C 12,8 C 72 % 1013,8 hPa 0,0 l/m 0 min 0 min 0 W/m 14,6 km/h (3 Bft)
09.05.2015 01:28 15,2 C 12,8 C 72 % 1013,7 hPa 0,0 l/m 0 min 0 min 0 W/m 14,6 km/h (3 Bft)
09.05.2015 01:30 15,2 C 12,8 C 72 % 1013,8 hPa 0,0 l/m 0 min 2 min 0 W/m 10,5 km/h (2 Bft)
09.05.2015 01:32 15,2 C 12,8 C 72 % 1013,8 hPa 0,0 l/m 0 min 0 min 0 W/m 14,6 km/h (3 Bft)
09.05.2015 01:34 15,2 C 12,8 C 72 % 1013,8 hPa 0,0 l/m 0 min 0 min 0 W/m 12,6 km/h (3 Bft)
09.05.2015 01:36 15,2 C 12,8 C 72 % 1013,7 hPa 0,0 l/m 0 min 0 min 0 W/m 12,6 km/h (3 Bft)
09.05.2015 01:38 15,2 C 12,8 C 72 % 1013,7 hPa 0,0 l/m 0 min 0 min 0 W/m 14,6 km/h (3 Bft)
09.05.2015 01:40 15,2 C 12,8 C 72 % 1013,7 hPa 0,0 l/m 0 min 0 min 0 W/m 10,5 km/h (2 Bft)
09.05.2015 01:42 15,2 C 12,8 C 72 % 1013,6 hPa 0,0 l/m 0 min 0 min 0 W/m 12,6 km/h (3 Bft)
09.05.2015 01:44 15,2 C 12,8 C 72 % 1013,7 hPa 0,0 l/m 0 min 0 min 0 W/m 10,5 km/h (2 Bft)
09.05.2015 01:46 15,2 C 12,8 C 72 % 1013,7 hPa 0,0 l/m 0 min 0 min 0 W/m 10,5 km/h (2 Bft)
09.05.2015 01:48 15,2 C 12,8 C 72 % 1013,7 hPa 0,0 l/m 0 min 0 min 0 W/m 10,5 km/h (2 Bft)
09.05.2015 01:50 15,2 C 12,8 C 72 % 1013,7 hPa 0,0 l/m 0 min 0 min 0 W/m 14,6 km/h (3 Bft)
09.05.2015 01:52 15,2 C 12,8 C 72 % 1013,6 hPa 0,0 l/m 0 min 0 min 0 W/m 14,6 km/h (3 Bft)
09.05.2015 01:54 15,2 C 12,8 C 72 % 1013,5 hPa 0,0 l/m 0 min 0 min 0 W/m 14,6 km/h (3 Bft)
09.05.2015 01:56 15,2 C 12,8 C 72 % 1013,6 hPa 0,0 l/m 0 min 0 min 0 W/m 12,6 km/h (3 Bft)
09.05.2015 01:58 15,2 C 12,8 C 72 % 1013,6 hPa 0,0 l/m 0 min 0 min 0 W/m 14,6 km/h (3 Bft)
09.05.2015 02:00 15,2 C 12,8 C 72 % 1013,6 hPa 0,0 l/m 0 min 0 min 0 W/m 10,5 km/h (2 Bft)
09.05.2015 02:02 15,2 C 12,8 C 73 % 1013,6 hPa 0,0 l/m 0 min 0 min 0 W/m 12,6 km/h (3 Bft)
09.05.2015 02:04 15,2 C 12,2 C 73 % 1013,5 hPa 0,0 l/m 0 min 0 min 0 W/m 10,5 km/h (2 Bft)
09.05.2015 02:06 15,2 C 12,2 C 73 % 1013,5 hPa 0,0 l/m 0 min 0 min 0 W/m 8,4 km/h (2 Bft)
09.05.2015 02:08 15,2 C 12,2 C 73 % 1013,6 hPa 0,0 l/m 0 min 0 min 0 W/m 14,6 km/h (3 Bft)
09.05.2015 02:10 15,2 C 12,2 C 73 % 1013,5 hPa 0,0 l/m 0 min 0 min 0 W/m 14,6 km/h (3 Bft)
09.05.2015 02:12 15,2 C 12,2 C 73 % 1013,5 hPa 0,0 l/m 0 min 0 min 0 W/m 8,4 km/h (2 Bft)
09.05.2015 02:14 15,1 C 12,2 C 73 % 1013,5 hPa 0,0 l/m 0 min 0 min 0 W/m 8,4 km/h (2 Bft)
09.05.2015 02:16 15,1 C 12,2 C 73 % 1013,5 hPa 0,0 l/m 0 min 0 min 0 W/m 10,5 km/h (2 Bft)
09.05.2015 02:18 15,1 C 12,2 C 73 % 1013,6 hPa 0,0 l/m 0 min 0 min 0 W/m 12,6 km/h (3 Bft)
09.05.2015 02:20 15,1 C 12,2 C 73 % 1013,5 hPa 0,0 l/m 0 min 0 min 0 W/m 16,7 km/h (3 Bft)
09.05.2015 02:22 15,1 C 12,2 C 73 % 1013,5 hPa 0,0 l/m 0 min 0 min 0 W/m 12,6 km/h (3 Bft)
09.05.2015 02:24 15,1 C 12,2 C 73 % 1013,5 hPa 0,0 l/m 0 min 0 min 0 W/m 18,8 km/h (3 Bft)
09.05.2015 02:26 15,1 C 12,2 C 73 % 1013,5 hPa 0,0 l/m 0 min 0 min 0 W/m 8,4 km/h (2 Bft)
09.05.2015 02:28 15,1 C 12,2 C 73 % 1013,4 hPa 0,0 l/m 0 min 0 min 0 W/m 16,7 km/h (3 Bft)
09.05.2015 02:30 15,1 C 12,2 C 73 % 1013,5 hPa 0,0 l/m 0 min 0 min 0 W/m 10,5 km/h (2 Bft)
09.05.2015 02:32 15,1 C 12,2 C 73 % 1013,4 hPa 0,0 l/m 0 min 0 min 0 W/m 8,4 km/h (2 Bft)
09.05.2015 02:34 15,1 C 12,2 C 73 % 1013,5 hPa 0,0 l/m 0 min 0 min 0 W/m 12,6 km/h (3 Bft)
09.05.2015 02:36 15,1 C 12,2 C 73 % 1013,5 hPa 0,0 l/m 0 min 0 min 0 W/m 10,5 km/h (2 Bft)
09.05.2015 02:38 15,1 C 12,2 C 73 % 1013,5 hPa 0,0 l/m 0 min 0 min 0 W/m 8,4 km/h (2 Bft)
09.05.2015 02:40 15,1 C 12,2 C 73 % 1013,5 hPa 0,0 l/m 0 min 0 min 0 W/m 10,5 km/h (2 Bft)
09.05.2015 02:42 15,1 C 12,2 C 73 % 1013,4 hPa 0,0 l/m 0 min 0 min 0 W/m 6,3 km/h (2 Bft)
09.05.2015 02:44 15,1 C 12,2 C 73 % 1013,4 hPa 0,0 l/m 0 min 0 min 0 W/m 12,6 km/h (3 Bft)
09.05.2015 02:46 15,1 C 12,2 C 73 % 1013,4 hPa 0,0 l/m 0 min 0 min 0 W/m 6,3 km/h (2 Bft)
09.05.2015 02:48 15,1 C 12,2 C 73 % 1013,5 hPa 0,0 l/m 0 min 0 min 0 W/m 10,5 km/h (2 Bft)
09.05.2015 02:50 15,1 C 12,2 C 73 % 1013,4 hPa 0,0 l/m 0 min 0 min 0 W/m 14,6 km/h (3 Bft)
09.05.2015 02:52 15,1 C 12,2 C 73 % 1013,4 hPa 0,0 l/m 0 min 0 min 0 W/m 12,6 km/h (3 Bft)
09.05.2015 02:54 15,1 C 12,2 C 73 % 1013,5 hPa 0,0 l/m 0 min 0 min 0 W/m 12,6 km/h (3 Bft)
09.05.2015 02:56 15,1 C 12,2 C 73 % 1013,4 hPa 0,0 l/m 0 min 0 min 0 W/m 8,4 km/h (2 Bft)
09.05.2015 02:58 15,1 C 12,2 C 73 % 1013,5 hPa 0,0 l/m 0 min 0 min 0 W/m 8,4 km/h (2 Bft)
09.05.2015 03:00 15,1 C 12,2 C 73 % 1013,5 hPa 0,0 l/m 0 min 0 min 0 W/m 14,6 km/h (3 Bft)
09.05.2015 03:02 15,1 C 12,2 C 73 % 1013,5 hPa 0,0 l/m 0 min 0 min 0 W/m 16,7 km/h (3 Bft)
09.05.2015 03:04 15,1 C 12,2 C 73 % 1013,4 hPa 0,0 l/m 0 min 0 min 0 W/m 14,6 km/h (3 Bft)
09.05.2015 03:06 15,0 C 12,2 C 73 % 1013,4 hPa 0,0 l/m 0 min 0 min 0 W/m 10,5 km/h (2 Bft)
09.05.2015 03:08 15,1 C 12,2 C 73 % 1013,5 hPa 0,0 l/m 0 min 0 min 0 W/m 18,8 km/h (3 Bft)
09.05.2015 03:10 15,0 C 12,2 C 73 % 1013,4 hPa 0,0 l/m 0 min 0 min 0 W/m 10,5 km/h (2 Bft)
09.05.2015 03:12 15,0 C 12,2 C 73 % 1013,4 hPa 0,0 l/m 0 min 0 min 0 W/m 6,3 km/h (2 Bft)
09.05.2015 03:14 15,0 C 12,2 C 73 % 1013,5 hPa 0,0 l/m 0 min 0 min 0 W/m 12,6 km/h (3 Bft)
09.05.2015 03:16 15,0 C 12,2 C 73 % 1013,5 hPa 0,0 l/m 0 min 0 min 0 W/m 10,5 km/h (2 Bft)
09.05.2015 03:18 15,0 C 12,2 C 73 % 1013,4 hPa 0,0 l/m 0 min 0 min 0 W/m 6,3 km/h (2 Bft)
09.05.2015 03:20 15,0 C 12,2 C 73 % 1013,5 hPa 0,0 l/m 0 min 0 min 0 W/m 10,5 km/h (2 Bft)
09.05.2015 03:22 14,9 C 12,2 C 73 % 1013,5 hPa 0,0 l/m 0 min 0 min 0 W/m 14,6 km/h (3 Bft)
09.05.2015 03:24 14,9 C 12,2 C 73 % 1013,5 hPa 0,0 l/m 0 min 0 min 0 W/m 14,6 km/h (3 Bft)
09.05.2015 03:26 14,9 C 12,2 C 73 % 1013,4 hPa 0,0 l/m 0 min 0 min 0 W/m 10,5 km/h (2 Bft)
09.05.2015 03:28 14,9 C 12,2 C 74 % 1013,5 hPa 0,0 l/m 0 min 0 min 0 W/m 10,5 km/h (2 Bft)
09.05.2015 03:30 14,9 C 12,2 C 74 % 1013,4 hPa 0,0 l/m 0 min 0 min 0 W/m 16,7 km/h (3 Bft)
09.05.2015 03:32 14,9 C 12,2 C 74 % 1013,4 hPa 0,0 l/m 0 min 0 min 0 W/m 10,5 km/h (2 Bft)
09.05.2015 03:34 14,9 C 12,2 C 74 % 1013,4 hPa 0,0 l/m 0 min 0 min 0 W/m 12,6 km/h (3 Bft)
09.05.2015 03:36 14,9 C 12,2 C 74 % 1013,4 hPa 0,0 l/m 0 min 0 min 0 W/m 14,6 km/h (3 Bft)
09.05.2015 03:38 14,9 C 12,2 C 74 % 1013,4 hPa 0,0 l/m 0 min 0 min 0 W/m 16,7 km/h (3 Bft)
09.05.2015 03:40 14,8 C 12,2 C 74 % 1013,3 hPa 0,0 l/m 0 min 0 min 0 W/m 10,5 km/h (2 Bft)
09.05.2015 03:42 14,8 C 12,2 C 74 % 1013,4 hPa 0,0 l/m 0 min 0 min 0 W/m 12,6 km/h (3 Bft)
09.05.2015 03:44 14,8 C 12,2 C 74 % 1013,4 hPa 0,0 l/m 0 min 0 min 0 W/m 14,6 km/h (3 Bft)
09.05.2015 03:46 14,8 C 12,2 C 74 % 1013,4 hPa 0,0 l/m 0 min 0 min 0 W/m 6,3 km/h (2 Bft)
09.05.2015 03:48 14,8 C 12,2 C 74 % 1013,3 hPa 0,0 l/m 0 min 0 min 0 W/m 8,4 km/h (2 Bft)
09.05.2015 03:50 14,8 C 12,2 C 75 % 1013,3 hPa 0,0 l/m 0 min 0 min 0 W/m 12,6 km/h (3 Bft)
09.05.2015 03:52 14,8 C 12,2 C 75 % 1013,3 hPa 0,0 l/m 0 min 0 min 0 W/m 8,4 km/h (2 Bft)
09.05.2015 03:54 14,8 C 12,2 C 75 % 1013,3 hPa 0,0 l/m 0 min 0 min 0 W/m 6,3 km/h (2 Bft)
09.05.2015 03:56 14,8 C 12,2 C 75 % 1013,3 hPa 0,0 l/m 0 min 0 min 0 W/m 12,6 km/h (3 Bft)
09.05.2015 03:58 14,7 C 12,2 C 75 % 1013,4 hPa 0,0 l/m 0 min 0 min 0 W/m 12,6 km/h (3 Bft)
09.05.2015 04:00 14,7 C 12,2 C 75 % 1013,3 hPa 0,0 l/m 0 min 0 min 0 W/m 10,5 km/h (2 Bft)
09.05.2015 04:02 14,7 C 12,2 C 75 % 1013,3 hPa 0,0 l/m 0 min 0 min 0 W/m 8,4 km/h (2 Bft)
09.05.2015 04:04 14,7 C 12,2 C 75 % 1013,4 hPa 0,0 l/m 0 min 0 min 0 W/m 10,5 km/h (2 Bft)
09.05.2015 04:06 14,7 C 12,2 C 75 % 1013,5 hPa 0,0 l/m 0 min 0 min 0 W/m 12,6 km/h (3 Bft)
09.05.2015 04:08 14,7 C 12,2 C 76 % 1013,5 hPa 0,0 l/m 0 min 0 min 0 W/m 12,6 km/h (3 Bft)
09.05.2015 04:10 14,6 C 12,2 C 76 % 1013,5 hPa 0,0 l/m 0 min 0 min 0 W/m 12,6 km/h (3 Bft)
09.05.2015 04:12 14,6 C 12,2 C 76 % 1013,5 hPa 0,0 l/m 0 min 0 min 0 W/m 10,5 km/h (2 Bft)
09.05.2015 04:14 14,6 C 12,2 C 76 % 1013,5 hPa 0,0 l/m 0 min 0 min 0 W/m 12,6 km/h (3 Bft)
09.05.2015 04:16 14,6 C 12,2 C 76 % 1013,5 hPa 0,0 l/m 0 min 0 min 0 W/m 14,6 km/h (3 Bft)
09.05.2015 04:18 14,6 C 12,2 C 76 % 1013,4 hPa 0,0 l/m 0 min 0 min 0 W/m 12,6 km/h (3 Bft)
09.05.2015 04:20 14,6 C 12,2 C 76 % 1013,4 hPa 0,0 l/m 0 min 0 min 0 W/m 10,5 km/h (2 Bft)
09.05.2015 04:22 14,6 C 12,2 C 77 % 1013,4 hPa 0,0 l/m 0 min 0 min 0 W/m 10,5 km/h (2 Bft)
09.05.2015 04:24 14,6 C 12,2 C 77 % 1013,4 hPa 0,0 l/m 0 min 0 min 0 W/m 12,6 km/h (3 Bft)
09.05.2015 04:26 14,6 C 12,2 C 77 % 1013,4 hPa 0,0 l/m 0 min 0 min 0 W/m 12,6 km/h (3 Bft)
09.05.2015 04:28 14,6 C 12,2 C 77 % 1013,4 hPa 0,0 l/m 0 min 0 min 0 W/m 14,6 km/h (3 Bft)
09.05.2015 04:30 14,6 C 12,2 C 77 % 1013,4 hPa 0,0 l/m 0 min 0 min 0 W/m 10,5 km/h (2 Bft)
09.05.2015 04:32 14,6 C 12,2 C 77 % 1013,4 hPa 0,0 l/m 0 min 0 min 0 W/m 14,6 km/h (3 Bft)
09.05.2015 04:34 14,6 C 12,2 C 77 % 1013,4 hPa 0,0 l/m 0 min 0 min 0 W/m 12,6 km/h (3 Bft)
09.05.2015 04:36 14,6 C 12,2 C 77 % 1013,4 hPa 0,0 l/m 0 min 0 min 0 W/m 12,6 km/h (3 Bft)
09.05.2015 04:38 14,6 C 12,2 C 77 % 1013,4 hPa 0,0 l/m 0 min 0 min 0 W/m 10,5 km/h (2 Bft)
09.05.2015 04:40 14,6 C 12,2 C 77 % 1013,5 hPa 0,0 l/m 0 min 0 min 0 W/m 10,5 km/h (2 Bft)
09.05.2015 04:42 14,6 C 12,2 C 77 % 1013,4 hPa 0,0 l/m 0 min 0 min 0 W/m 14,6 km/h (3 Bft)
09.05.2015 04:44 14,6 C 12,2 C 77 % 1013,5 hPa 0,0 l/m 0 min 0 min 0 W/m 12,6 km/h (3 Bft)
09.05.2015 04:46 14,6 C 12,2 C 77 % 1013,4 hPa 0,0 l/m 0 min 0 min 0 W/m 10,5 km/h (2 Bft)
09.05.2015 04:48 14,6 C 12,2 C 77 % 1013,4 hPa 0,0 l/m 0 min 0 min 0 W/m 10,5 km/h (2 Bft)
09.05.2015 04:50 14,6 C 12,2 C 77 % 1013,4 hPa 0,0 l/m 0 min 0 min 0 W/m 12,6 km/h (3 Bft)
09.05.2015 04:52 14,6 C 12,2 C 77 % 1013,4 hPa 0,0 l/m 0 min 0 min 0 W/m 12,6 km/h (3 Bft)
09.05.2015 04:54 14,6 C 12,2 C 77 % 1013,4 hPa 0,0 l/m 0 min 0 min 0 W/m 8,4 km/h (2 Bft)
09.05.2015 04:56 14,6 C 12,2 C 77 % 1013,5 hPa 0,0 l/m 0 min 0 min 0 W/m 10,5 km/h (2 Bft)
09.05.2015 04:58 14,6 C 12,2 C 77 % 1013,5 hPa 0,0 l/m 0 min 0 min 0 W/m 12,6 km/h (3 Bft)
09.05.2015 05:00 14,6 C 12,2 C 77 % 1013,5 hPa 0,0 l/m 0 min 0 min 0 W/m 14,6 km/h (3 Bft)
09.05.2015 05:02 14,6 C 12,2 C 77 % 1013,5 hPa 0,0 l/m 0 min 0 min 0 W/m 10,5 km/h (2 Bft)
09.05.2015 05:04 14,6 C 12,2 C 77 % 1013,5 hPa 0,0 l/m 0 min 0 min 0 W/m 12,6 km/h (3 Bft)
09.05.2015 05:06 14,6 C 12,2 C 77 % 1013,5 hPa 0,0 l/m 0 min 0 min 0 W/m 14,6 km/h (3 Bft)
09.05.2015 05:08 14,6 C 12,2 C 77 % 1013,5 hPa 0,0 l/m 0 min 0 min 0 W/m 16,7 km/h (3 Bft)
09.05.2015 05:10 14,6 C 12,2 C 77 % 1013,5 hPa 0,0 l/m 0 min 0 min 0 W/m 10,5 km/h (2 Bft)
09.05.2015 05:12 14,6 C 12,2 C 77 % 1013,5 hPa 0,0 l/m 0 min 0 min 0 W/m 12,6 km/h (3 Bft)
09.05.2015 05:14 14,6 C 12,2 C 78 % 1013,5 hPa 0,0 l/m 0 min 0 min 0 W/m 12,6 km/h (3 Bft)
09.05.2015 05:16 14,6 C 12,2 C 78 % 1013,6 hPa 0,0 l/m 0 min 0 min 0 W/m 14,6 km/h (3 Bft)
09.05.2015 05:18 14,6 C 12,2 C 78 % 1013,6 hPa 0,0 l/m 0 min 0 min 0 W/m 16,7 km/h (3 Bft)
09.05.2015 05:20 14,6 C 12,2 C 78 % 1013,6 hPa 0,0 l/m 0 min 0 min 0 W/m 16,7 km/h (3 Bft)
09.05.2015 05:22 14,6 C 12,2 C 78 % 1013,6 hPa 0,0 l/m 0 min 0 min 0 W/m 20,9 km/h (4 Bft)
09.05.2015 05:24 14,6 C 12,2 C 78 % 1013,6 hPa 0,0 l/m 0 min 0 min 0 W/m 14,6 km/h (3 Bft)
09.05.2015 05:26 14,7 C 12,2 C 78 % 1013,6 hPa 0,0 l/m 0 min 0 min 0 W/m 14,6 km/h (3 Bft)
09.05.2015 05:28 14,7 C 12,2 C 78 % 1013,6 hPa 0,0 l/m 0 min 0 min 0 W/m 20,9 km/h (4 Bft)
09.05.2015 05:30 14,7 C 12,2 C 78 % 1013,6 hPa 0,0 l/m 0 min 0 min 0 W/m 12,6 km/h (3 Bft)
09.05.2015 05:32 14,7 C 12,2 C 79 % 1013,6 hPa 0,0 l/m 0 min 0 min 0 W/m 16,7 km/h (3 Bft)
09.05.2015 05:34 14,7 C 12,2 C 79 % 1013,5 hPa 0,0 l/m 0 min 0 min 0 W/m 23,0 km/h (4 Bft)
09.05.2015 05:36 14,7 C 12,2 C 79 % 1013,6 hPa 0,0 l/m 0 min 0 min 0 W/m 12,6 km/h (3 Bft)
09.05.2015 05:38 14,7 C 12,2 C 79 % 1013,5 hPa 0,0 l/m 0 min 0 min 0 W/m 16,7 km/h (3 Bft)
09.05.2015 05:40 14,8 C 12,2 C 79 % 1013,5 hPa 0,0 l/m 0 min 0 min 0 W/m 12,6 km/h (3 Bft)
09.05.2015 05:42 14,8 C 12,2 C 79 % 1013,5 hPa 0,0 l/m 0 min 0 min 0 W/m 14,6 km/h (3 Bft)
09.05.2015 05:44 14,8 C 12,2 C 79 % 1013,5 hPa 0,0 l/m 0 min 0 min 0 W/m 12,6 km/h (3 Bft)
09.05.2015 05:46 14,8 C 12,2 C 79 % 1013,5 hPa 0,0 l/m 0 min 0 min 0 W/m 12,6 km/h (3 Bft)
09.05.2015 05:48 14,8 C 12,2 C 79 % 1013,5 hPa 0,0 l/m 0 min 0 min 0 W/m 8,4 km/h (2 Bft)
09.05.2015 05:50 14,8 C 12,2 C 79 % 1013,5 hPa 0,0 l/m 0 min 0 min 0 W/m 10,5 km/h (2 Bft)
09.05.2015 05:52 14,8 C 12,2 C 79 % 1013,5 hPa 0,0 l/m 0 min 0 min 2 W/m 16,7 km/h (3 Bft)
09.05.2015 05:54 14,8 C 12,2 C 79 % 1013,6 hPa 0,0 l/m 0 min 0 min 5 W/m 18,8 km/h (3 Bft)
09.05.2015 05:56 14,8 C 12,2 C 80 % 1013,5 hPa 0,0 l/m 0 min 0 min 5 W/m 18,8 km/h (3 Bft)
09.05.2015 05:58 14,8 C 12,2 C 80 % 1013,5 hPa 0,0 l/m 0 min 0 min 7 W/m 14,6 km/h (3 Bft)
09.05.2015 06:00 14,8 C 12,2 C 80 % 1013,5 hPa 0,0 l/m 0 min 0 min 9 W/m 12,6 km/h (3 Bft)
09.05.2015 06:02 14,8 C 12,2 C 80 % 1013,5 hPa 0,0 l/m 0 min 0 min 11 W/m 10,5 km/h (2 Bft)
09.05.2015 06:06 14,8 C 12,2 C 80 % 1013,5 hPa 0,0 l/m 0 min 0 min 14 W/m 14,6 km/h (3 Bft)
09.05.2015 06:08 14,8 C 12,2 C 80 % 1013,5 hPa 0,0 l/m 0 min 0 min 17 W/m 14,6 km/h (3 Bft)
09.05.2015 06:10 14,8 C 12,2 C 80 % 1013,6 hPa 0,0 l/m 0 min 0 min 18 W/m 14,6 km/h (3 Bft)
09.05.2015 06:12 14,8 C 12,2 C 80 % 1013,6 hPa 0,0 l/m 0 min 0 min 18 W/m 16,7 km/h (3 Bft)
09.05.2015 06:14 14,8 C 12,2 C 81 % 1013,6 hPa 0,0 l/m 0 min 0 min 18 W/m 12,6 km/h (3 Bft)
09.05.2015 06:16 14,8 C 12,2 C 81 % 1013,6 hPa 0,0 l/m 0 min 0 min 18 W/m 12,6 km/h (3 Bft)
09.05.2015 06:18 14,8 C 12,2 C 81 % 1013,6 hPa 0,0 l/m 0 min 0 min 15 W/m 12,6 km/h (3 Bft)
09.05.2015 06:20 14,8 C 12,2 C 81 % 1013,6 hPa 0,0 l/m 0 min 0 min 11 W/m 12,6 km/h (3 Bft)
09.05.2015 06:22 14,8 C 12,2 C 81 % 1013,7 hPa 0,0 l/m 0 min 0 min 11 W/m 8,4 km/h (2 Bft)
09.05.2015 06:24 14,8 C 12,2 C 82 % 1013,6 hPa 0,0 l/m 0 min 0 min 13 W/m 12,6 km/h (3 Bft)
09.05.2015 06:26 14,8 C 12,2 C 82 % 1013,6 hPa 0,0 l/m 0 min 0 min 19 W/m 10,5 km/h (2 Bft)
09.05.2015 06:28 14,8 C 12,2 C 82 % 1013,7 hPa 0,0 l/m 0 min 0 min 23 W/m 10,5 km/h (2 Bft)
09.05.2015 06:30 14,8 C 12,2 C 82 % 1013,7 hPa 0,0 l/m 0 min 0 min 22 W/m 12,6 km/h (3 Bft)
09.05.2015 06:32 14,8 C 12,8 C 82 % 1013,7 hPa 0,0 l/m 0 min 0 min 25 W/m 14,6 km/h (3 Bft)
09.05.2015 06:34 14,8 C 12,8 C 82 % 1013,7 hPa 0,0 l/m 0 min 0 min 25 W/m 14,6 km/h (3 Bft)
09.05.2015 06:36 14,8 C 12,8 C 82 % 1013,7 hPa 0,0 l/m 0 min 0 min 27 W/m 10,5 km/h (2 Bft)
09.05.2015 06:38 14,8 C 12,8 C 82 % 1013,7 hPa 0,0 l/m 0 min 0 min 32 W/m 14,6 km/h (3 Bft)
09.05.2015 06:40 14,8 C 12,8 C 82 % 1013,6 hPa 0,0 l/m 0 min 0 min 36 W/m 14,6 km/h (3 Bft)
09.05.2015 06:42 14,8 C 12,8 C 82 % 1013,7 hPa 0,0 l/m 0 min 0 min 39 W/m 14,6 km/h (3 Bft)
09.05.2015 06:44 14,9 C 12,8 C 82 % 1013,7 hPa 0,0 l/m 0 min 0 min 41 W/m 10,5 km/h (2 Bft)
09.05.2015 06:46 14,9 C 12,8 C 82 % 1013,7 hPa 0,0 l/m 0 min 0 min 45 W/m 12,6 km/h (3 Bft)
09.05.2015 06:48 14,9 C 12,8 C 83 % 1013,8 hPa 0,0 l/m 0 min 0 min 48 W/m 14,6 km/h (3 Bft)
09.05.2015 06:50 14,9 C 12,8 C 83 % 1013,8 hPa 0,0 l/m 0 min 0 min 50 W/m 18,8 km/h (3 Bft)
09.05.2015 06:52 14,9 C 12,8 C 83 % 1013,9 hPa 0,0 l/m 0 min 0 min 53 W/m 18,8 km/h (3 Bft)
09.05.2015 06:54 14,9 C 12,8 C 83 % 1013,9 hPa 0,0 l/m 0 min 0 min 54 W/m 12,6 km/h (3 Bft)
09.05.2015 06:56 14,9 C 12,8 C 83 % 1013,9 hPa 0,0 l/m 0 min 0 min 58 W/m 18,8 km/h (3 Bft)
09.05.2015 06:58 14,9 C 12,8 C 83 % 1013,9 hPa 0,0 l/m 0 min 0 min 62 W/m 16,7 km/h (3 Bft)
09.05.2015 07:00 14,9 C 12,8 C 83 % 1013,9 hPa 0,0 l/m 0 min 0 min 64 W/m 16,7 km/h (3 Bft)
09.05.2015 07:02 14,9 C 12,8 C 83 % 1014,0 hPa 0,0 l/m 0 min 0 min 64 W/m 18,8 km/h (3 Bft)
09.05.2015 07:04 15,0 C 12,8 C 83 % 1014,0 hPa 0,0 l/m 0 min 0 min 63 W/m 14,6 km/h (3 Bft)
09.05.2015 07:06 15,0 C 12,8 C 83 % 1014,0 hPa 0,0 l/m 0 min 0 min 59 W/m 16,7 km/h (3 Bft)
09.05.2015 07:08 15,1 C 12,8 C 84 % 1014,1 hPa 0,0 l/m 0 min 0 min 48 W/m 16,7 km/h (3 Bft)
09.05.2015 07:10 15,1 C 12,8 C 84 % 1014,1 hPa 0,0 l/m 0 min 0 min 49 W/m 18,8 km/h (3 Bft)
09.05.2015 07:12 15,1 C 12,8 C 84 % 1014,1 hPa 0,0 l/m 0 min 0 min 51 W/m 16,7 km/h (3 Bft)
09.05.2015 07:14 15,1 C 12,8 C 84 % 1014,1 hPa 0,0 l/m 0 min 0 min 49 W/m 18,8 km/h (3 Bft)
09.05.2015 07:16 15,1 C 12,8 C 84 % 1014,1 hPa 0,0 l/m 0 min 0 min 48 W/m 20,9 km/h (4 Bft)
09.05.2015 07:18 15,1 C 12,8 C 84 % 1014,2 hPa 0,0 l/m 0 min 0 min 43 W/m 23,0 km/h (4 Bft)
09.05.2015 07:20 15,2 C 12,8 C 84 % 1014,1 hPa 0,0 l/m 0 min 0 min 36 W/m 23,0 km/h (4 Bft)
09.05.2015 07:22 15,2 C 12,8 C 84 % 1014,1 hPa 0,0 l/m 0 min 0 min 26 W/m 20,9 km/h (4 Bft)
09.05.2015 07:24 15,2 C 12,8 C 84 % 1014,2 hPa 0,0 l/m 0 min 0 min 23 W/m 20,9 km/h (4 Bft)
09.05.2015 07:26 15,2 C 12,8 C 84 % 1014,2 hPa 0,0 l/m 0 min 0 min 18 W/m 31,4 km/h (5 Bft)
09.05.2015 07:28 15,2 C 12,8 C 84 % 1014,2 hPa 0,0 l/m 0 min 0 min 16 W/m 25,1 km/h (4 Bft)
09.05.2015 07:30 15,2 C 12,8 C 84 % 1014,2 hPa 0,0 l/m 0 min 0 min 16 W/m 18,8 km/h (3 Bft)
09.05.2015 07:32 15,2 C 12,8 C 84 % 1014,2 hPa 0,0 l/m 0 min 0 min 17 W/m 14,6 km/h (3 Bft)
09.05.2015 07:34 15,2 C 12,8 C 84 % 1014,3 hPa 0,0 l/m 0 min 2 min 26 W/m 20,9 km/h (4 Bft)
09.05.2015 07:36 15,2 C 12,8 C 84 % 1014,2 hPa 0,0 l/m 0 min 0 min 38 W/m 23,0 km/h (4 Bft)
09.05.2015 07:38 15,2 C 12,8 C 83 % 1014,3 hPa 0,0 l/m 0 min 0 min 47 W/m 14,6 km/h (3 Bft)
09.05.2015 07:40 15,2 C 12,8 C 83 % 1014,2 hPa 0,0 l/m 0 min 0 min 48 W/m 18,8 km/h (3 Bft)
09.05.2015 07:42 15,2 C 12,8 C 83 % 1014,3 hPa 0,0 l/m 0 min 0 min 43 W/m 18,8 km/h (3 Bft)
09.05.2015 07:44 15,2 C 12,8 C 84 % 1014,3 hPa 0,0 l/m 0 min 0 min 37 W/m 16,7 km/h (3 Bft)
09.05.2015 07:46 15,2 C 12,8 C 84 % 1014,3 hPa 0,0 l/m 0 min 0 min 31 W/m 23,0 km/h (4 Bft)
09.05.2015 07:48 15,2 C 12,8 C 84 % 1014,3 hPa 0,0 l/m 0 min 0 min 32 W/m 18,8 km/h (3 Bft)
09.05.2015 07:50 15,2 C 12,8 C 84 % 1014,3 hPa 0,0 l/m 0 min 0 min 39 W/m 14,6 km/h (3 Bft)
09.05.2015 07:52 15,2 C 12,8 C 84 % 1014,4 hPa 0,0 l/m 0 min 0 min 44 W/m 18,8 km/h (3 Bft)
09.05.2015 07:54 15,3 C 12,8 C 84 % 1014,4 hPa 0,0 l/m 0 min 0 min 45 W/m 14,6 km/h (3 Bft)
09.05.2015 07:56 15,3 C 12,8 C 84 % 1014,5 hPa 0,0 l/m 0 min 0 min 50 W/m 14,6 km/h (3 Bft)
09.05.2015 07:58 15,3 C 13,3 C 84 % 1014,4 hPa 0,0 l/m 0 min 0 min 50 W/m 14,6 km/h (3 Bft)
09.05.2015 08:00 15,3 C 13,3 C 84 % 1014,5 hPa 0,0 l/m 0 min 0 min 46 W/m 10,5 km/h (2 Bft)
09.05.2015 08:02 15,3 C 13,3 C 84 % 1014,5 hPa 0,0 l/m 0 min 0 min 62 W/m 12,6 km/h (3 Bft)
09.05.2015 08:04 15,3 C 13,3 C 84 % 1014,5 hPa 0,0 l/m 0 min 0 min 76 W/m 25,1 km/h (4 Bft)
09.05.2015 08:06 15,3 C 13,3 C 84 % 1014,5 hPa 0,0 l/m 0 min 0 min 87 W/m 29,3 km/h (5 Bft)
09.05.2015 08:08 15,3 C 13,3 C 84 % 1014,5 hPa 0,0 l/m 0 min 0 min 85 W/m 31,4 km/h (5 Bft)
09.05.2015 08:10 15,3 C 13,3 C 84 % 1014,6 hPa 0,0 l/m 0 min 0 min 79 W/m 18,8 km/h (3 Bft)
09.05.2015 08:12 15,3 C 13,3 C 83 % 1014,6 hPa 0,0 l/m 0 min 0 min 75 W/m 29,3 km/h (5 Bft)
09.05.2015 08:14 15,3 C 13,3 C 83 % 1014,7 hPa 0,0 l/m 0 min 0 min 72 W/m 29,3 km/h (5 Bft)
09.05.2015 08:16 15,3 C 13,3 C 83 % 1014,7 hPa 0,0 l/m 0 min 0 min 75 W/m 25,1 km/h (4 Bft)
09.05.2015 08:18 15,3 C 13,3 C 83 % 1014,7 hPa 0,0 l/m 0 min 0 min 85 W/m 20,9 km/h (4 Bft)
09.05.2015 08:20 15,4 C 13,3 C 83 % 1014,8 hPa 0,0 l/m 0 min 0 min 96 W/m 18,8 km/h (3 Bft)
09.05.2015 08:22 15,4 C 13,3 C 83 % 1014,8 hPa 0,0 l/m 0 min 0 min 88 W/m 20,9 km/h (4 Bft)
09.05.2015 08:24 15,4 C 13,3 C 83 % 1014,8 hPa 0,0 l/m 0 min 0 min 83 W/m 18,8 km/h (3 Bft)
09.05.2015 08:26 15,4 C 13,3 C 83 % 1014,8 hPa 0,0 l/m 0 min 0 min 75 W/m 16,7 km/h (3 Bft)
09.05.2015 08:28 15,4 C 13,3 C 83 % 1014,9 hPa 0,0 l/m 0 min 0 min 81 W/m 16,7 km/h (3 Bft)
09.05.2015 08:30 15,5 C 13,3 C 83 % 1014,9 hPa 0,0 l/m 0 min 0 min 99 W/m 20,9 km/h (4 Bft)
09.05.2015 08:32 15,5 C 13,3 C 83 % 1014,9 hPa 0,0 l/m 0 min 0 min 119 W/m 25,1 km/h (4 Bft)
09.05.2015 08:34 15,5 C 13,3 C 83 % 1015,0 hPa 0,0 l/m 0 min 0 min 135 W/m 31,4 km/h (5 Bft)
09.05.2015 08:36 15,5 C 13,9 C 81 % 1014,9 hPa 0,0 l/m 0 min 0 min 134 W/m 27,2 km/h (4 Bft)
09.05.2015 08:38 15,5 C 13,9 C 81 % 1014,9 hPa 0,0 l/m 0 min 0 min 136 W/m 35,6 km/h (5 Bft)
09.05.2015 08:40 15,5 C 13,9 C 80 % 1014,9 hPa 0,0 l/m 0 min 0 min 145 W/m 35,6 km/h (5 Bft)
09.05.2015 08:42 15,5 C 13,9 C 80 % 1014,9 hPa 0,0 l/m 0 min 0 min 139 W/m 27,2 km/h (4 Bft)
09.05.2015 08:44 15,6 C 13,9 C 79 % 1015,0 hPa 0,0 l/m 0 min 0 min 119 W/m 35,6 km/h (5 Bft)
09.05.2015 08:46 15,6 C 13,3 C 79 % 1015,0 hPa 0,0 l/m 0 min 0 min 103 W/m 37,7 km/h (5 Bft)
09.05.2015 08:48 15,6 C 13,3 C 78 % 1015,0 hPa 0,0 l/m 0 min 0 min 87 W/m 29,3 km/h (5 Bft)
09.05.2015 08:50 15,6 C 13,3 C 78 % 1015,1 hPa 0,0 l/m 0 min 0 min 83 W/m 27,2 km/h (4 Bft)
09.05.2015 08:52 15,6 C 13,3 C 79 % 1015,0 hPa 0,0 l/m 0 min 0 min 94 W/m 27,2 km/h (4 Bft)
09.05.2015 08:54 15,6 C 13,3 C 78 % 1015,0 hPa 0,0 l/m 0 min 0 min 96 W/m 29,3 km/h (5 Bft)
09.05.2015 08:56 15,6 C 13,3 C 78 % 1014,9 hPa 0,0 l/m 0 min 0 min 124 W/m 25,1 km/h (4 Bft)
09.05.2015 08:58 15,6 C 13,3 C 78 % 1015,0 hPa 0,0 l/m 0 min 0 min 129 W/m 18,8 km/h (3 Bft)
09.05.2015 09:00 15,6 C 13,9 C 79 % 1015,0 hPa 0,0 l/m 0 min 0 min 150 W/m 16,7 km/h (3 Bft)
09.05.2015 09:02 15,6 C 13,9 C 78 % 1015,1 hPa 0,0 l/m 0 min 0 min 145 W/m 20,9 km/h (4 Bft)
09.05.2015 09:04 15,6 C 13,9 C 78 % 1015,1 hPa 0,0 l/m 0 min 0 min 115 W/m 23,0 km/h (4 Bft)
09.05.2015 09:06 15,6 C 13,9 C 78 % 1015,2 hPa 0,0 l/m 0 min 0 min 128 W/m 25,1 km/h (4 Bft)
09.05.2015 09:08 15,6 C 13,9 C 78 % 1015,2 hPa 0,0 l/m 0 min 0 min 108 W/m 23,0 km/h (4 Bft)
09.05.2015 09:10 15,6 C 13,9 C 78 % 1015,2 hPa 0,0 l/m 0 min 0 min 102 W/m 23,0 km/h (4 Bft)
09.05.2015 09:12 15,7 C 13,9 C 79 % 1015,2 hPa 0,0 l/m 0 min 0 min 123 W/m 23,0 km/h (4 Bft)
09.05.2015 09:14 15,7 C 13,9 C 79 % 1015,3 hPa 0,0 l/m 0 min 0 min 168 W/m 25,1 km/h (4 Bft)
09.05.2015 09:16 15,7 C 13,9 C 79 % 1015,3 hPa 0,0 l/m 0 min 0 min 179 W/m 29,3 km/h (5 Bft)
09.05.2015 09:18 15,7 C 13,9 C 78 % 1015,3 hPa 0,0 l/m 0 min 0 min 184 W/m 39,7 km/h (6 Bft)
09.05.2015 09:20 15,7 C 13,9 C 78 % 1015,4 hPa 0,0 l/m 0 min 0 min 158 W/m 33,5 km/h (5 Bft)
09.05.2015 09:22 15,7 C 13,9 C 77 % 1015,3 hPa 0,0 l/m 0 min 0 min 168 W/m 31,4 km/h (5 Bft)
09.05.2015 09:24 15,7 C 13,9 C 77 % 1015,3 hPa 0,0 l/m 0 min 0 min 180 W/m 31,4 km/h (5 Bft)
09.05.2015 09:26 15,7 C 13,9 C 77 % 1015,3 hPa 0,0 l/m 2 min 0 min 259 W/m 29,3 km/h (5 Bft)
09.05.2015 09:28 15,7 C 13,9 C 76 % 1015,2 hPa 0,0 l/m 0 min 0 min 214 W/m 33,5 km/h (5 Bft)
09.05.2015 09:30 15,8 C 13,9 C 76 % 1015,4 hPa 0,0 l/m 0 min 0 min 236 W/m 35,6 km/h (5 Bft)
09.05.2015 09:32 15,8 C 13,9 C 76 % 1015,4 hPa 0,0 l/m 0 min 0 min 214 W/m 29,3 km/h (5 Bft)
09.05.2015 09:34 15,9 C 13,9 C 76 % 1015,3 hPa 0,0 l/m 0 min 0 min 180 W/m 27,2 km/h (4 Bft)
09.05.2015 09:36 15,9 C 13,9 C 76 % 1015,4 hPa 0,0 l/m 0 min 0 min 180 W/m 27,2 km/h (4 Bft)
09.05.2015 09:38 15,9 C 13,9 C 76 % 1015,2 hPa 0,0 l/m 0 min 0 min 180 W/m 27,2 km/h (4 Bft)
09.05.2015 09:40 15,9 C 14,4 C 76 % 1015,4 hPa 0,0 l/m 0 min 0 min 200 W/m 29,3 km/h (5 Bft)
09.05.2015 09:42 16,0 C 14,4 C 76 % 1015,3 hPa 0,0 l/m 0 min 0 min 210 W/m 29,3 km/h (5 Bft)
09.05.2015 09:44 16,0 C 14,4 C 77 % 1015,4 hPa 0,0 l/m 0 min 0 min 215 W/m 23,0 km/h (4 Bft)
09.05.2015 09:46 16,1 C 14,4 C 76 % 1015,5 hPa 0,0 l/m 0 min 0 min 196 W/m 27,2 km/h (4 Bft)
09.05.2015 09:48 16,1 C 14,4 C 76 % 1015,4 hPa 0,0 l/m 0 min 0 min 203 W/m 31,4 km/h (5 Bft)
09.05.2015 09:50 16,1 C 14,4 C 76 % 1015,5 hPa 0,0 l/m 0 min 0 min 209 W/m 29,3 km/h (5 Bft)
09.05.2015 09:52 16,1 C 14,4 C 75 % 1015,5 hPa 0,0 l/m 0 min 0 min 232 W/m 37,7 km/h (5 Bft)
09.05.2015 09:54 16,1 C 14,4 C 75 % 1015,5 hPa 0,0 l/m 0 min 0 min 238 W/m 43,9 km/h (6 Bft)
09.05.2015 09:56 16,2 C 14,4 C 75 % 1015,5 hPa 0,0 l/m 0 min 0 min 234 W/m 25,1 km/h (4 Bft)
09.05.2015 09:58 16,2 C 14,4 C 76 % 1015,5 hPa 0,0 l/m 0 min 0 min 237 W/m 25,1 km/h (4 Bft)
09.05.2015 10:00 16,2 C 14,4 C 76 % 1015,5 hPa 0,0 l/m 0 min 0 min 207 W/m 29,3 km/h (5 Bft)
09.05.2015 10:02 16,3 C 14,4 C 76 % 1015,4 hPa 0,0 l/m 0 min 0 min 193 W/m 29,3 km/h (5 Bft)
09.05.2015 10:04 16,3 C 14,4 C 75 % 1015,5 hPa 0,0 l/m 0 min 0 min 233 W/m 29,3 km/h (5 Bft)
09.05.2015 10:06 16,3 C 14,4 C 75 % 1015,5 hPa 0,0 l/m 0 min 0 min 227 W/m 29,3 km/h (5 Bft)
09.05.2015 10:08 16,3 C 14,4 C 75 % 1015,5 hPa 0,0 l/m 0 min 0 min 177 W/m 23,0 km/h (4 Bft)
09.05.2015 10:10 16,3 C 14,4 C 75 % 1015,5 hPa 0,0 l/m 0 min 0 min 168 W/m 23,0 km/h (4 Bft)
09.05.2015 10:12 16,3 C 14,4 C 75 % 1015,5 hPa 0,0 l/m 0 min 0 min 192 W/m 29,3 km/h (5 Bft)
09.05.2015 10:14 16,3 C 14,4 C 75 % 1015,6 hPa 0,0 l/m 0 min 0 min 241 W/m 35,6 km/h (5 Bft)
09.05.2015 10:16 16,4 C 14,4 C 75 % 1015,6 hPa 0,0 l/m 0 min 0 min 204 W/m 18,8 km/h (3 Bft)
09.05.2015 10:18 16,4 C 14,4 C 75 % 1015,5 hPa 0,0 l/m 0 min 0 min 231 W/m 29,3 km/h (5 Bft)
09.05.2015 10:20 16,4 C 15,0 C 75 % 1015,6 hPa 0,0 l/m 2 min 0 min 327 W/m 31,4 km/h (5 Bft)
09.05.2015 10:22 16,4 C 15,0 C 74 % 1015,6 hPa 0,0 l/m 2 min 0 min 334 W/m 35,6 km/h (5 Bft)
09.05.2015 10:24 16,5 C 15,0 C 74 % 1015,6 hPa 0,0 l/m 2 min 0 min 400 W/m 25,1 km/h (4 Bft)
09.05.2015 10:26 16,6 C 15,0 C 74 % 1015,6 hPa 0,0 l/m 2 min 0 min 488 W/m 31,4 km/h (5 Bft)
09.05.2015 10:28 16,7 C 15,6 C 74 % 1015,6 hPa 0,0 l/m 2 min 0 min 558 W/m 37,7 km/h (5 Bft)
09.05.2015 10:30 16,9 C 15,6 C 73 % 1015,6 hPa 0,0 l/m 2 min 0 min 563 W/m 37,7 km/h (5 Bft)
09.05.2015 10:32 17,0 C 15,6 C 73 % 1015,6 hPa 0,0 l/m 2 min 0 min 558 W/m 31,4 km/h (5 Bft)
09.05.2015 10:34 17,1 C 15,6 C 72 % 1015,6 hPa 0,0 l/m 2 min 0 min 431 W/m 37,7 km/h (5 Bft)
09.05.2015 10:36 17,1 C 15,0 C 71 % 1015,7 hPa 0,0 l/m 0 min 0 min 231 W/m 29,3 km/h (5 Bft)
09.05.2015 10:38 17,1 C 15,0 C 71 % 1015,7 hPa 0,0 l/m 0 min 0 min 247 W/m 35,6 km/h (5 Bft)
09.05.2015 10:40 17,1 C 15,0 C 71 % 1015,8 hPa 0,0 l/m 0 min 0 min 279 W/m 27,2 km/h (4 Bft)
09.05.2015 10:42 17,2 C 15,0 C 71 % 1015,7 hPa 0,0 l/m 0 min 0 min 271 W/m 25,1 km/h (4 Bft)
09.05.2015 10:44 17,2 C 15,0 C 72 % 1015,7 hPa 0,0 l/m 0 min 0 min 309 W/m 23,0 km/h (4 Bft)
09.05.2015 10:46 17,2 C 15,6 C 72 % 1015,7 hPa 0,0 l/m 0 min 0 min 308 W/m 20,9 km/h (4 Bft)
09.05.2015 10:48 17,3 C 15,6 C 72 % 1015,8 hPa 0,0 l/m 2 min 0 min 365 W/m 37,7 km/h (5 Bft)
09.05.2015 10:50 17,4 C 16,1 C 70 % 1015,8 hPa 0,0 l/m 2 min 0 min 716 W/m 33,5 km/h (5 Bft)
09.05.2015 10:52 17,5 C 16,1 C 71 % 1015,7 hPa 0,0 l/m 2 min 0 min 726 W/m 23,0 km/h (4 Bft)
09.05.2015 10:54 17,7 C 16,1 C 71 % 1015,9 hPa 0,0 l/m 0 min 0 min 316 W/m 27,2 km/h (4 Bft)
09.05.2015 10:56 17,7 C 16,1 C 68 % 1016,0 hPa 0,0 l/m 2 min 0 min 368 W/m 39,7 km/h (6 Bft)
09.05.2015 10:58 17,7 C 15,6 C 69 % 1016,0 hPa 0,0 l/m 0 min 0 min 294 W/m 31,4 km/h (5 Bft)
09.05.2015 11:00 17,7 C 15,6 C 69 % 1015,9 hPa 0,0 l/m 0 min 0 min 273 W/m 20,9 km/h (4 Bft)
09.05.2015 11:02 17,7 C 15,6 C 69 % 1015,9 hPa 0,0 l/m 0 min 0 min 251 W/m 27,2 km/h (4 Bft)
09.05.2015 11:04 17,7 C 15,6 C 69 % 1015,9 hPa 0,0 l/m 0 min 0 min 209 W/m 25,1 km/h (4 Bft)
09.05.2015 11:06 17,7 C 15,0 C 69 % 1015,9 hPa 0,0 l/m 0 min 0 min 182 W/m 25,1 km/h (4 Bft)
09.05.2015 11:08 17,6 C 15,0 C 70 % 1015,9 hPa 0,0 l/m 0 min 0 min 181 W/m 20,9 km/h (4 Bft)
09.05.2015 11:10 17,6 C 15,0 C 70 % 1016,0 hPa 0,0 l/m 0 min 0 min 213 W/m 27,2 km/h (4 Bft)
09.05.2015 11:12 17,5 C 15,0 C 70 % 1015,9 hPa 0,0 l/m 0 min 0 min 218 W/m 18,8 km/h (3 Bft)
09.05.2015 11:14 17,5 C 15,6 C 70 % 1015,9 hPa 0,0 l/m 2 min 0 min 641 W/m 20,9 km/h (4 Bft)
09.05.2015 11:16 17,5 C 15,6 C 70 % 1015,8 hPa 0,0 l/m 2 min 0 min 780 W/m 20,9 km/h (4 Bft)
09.05.2015 11:18 17,6 C 16,1 C 70 % 1015,8 hPa 0,0 l/m 2 min 0 min 768 W/m 18,8 km/h (3 Bft)
09.05.2015 11:20 17,8 C 16,1 C 71 % 1015,7 hPa 0,0 l/m 2 min 0 min 791 W/m 27,2 km/h (4 Bft)
09.05.2015 11:22 17,9 C 16,7 C 70 % 1015,9 hPa 0,0 l/m 2 min 0 min 813 W/m 31,4 km/h (5 Bft)
09.05.2015 11:24 18,2 C 16,7 C 70 % 1015,9 hPa 0,0 l/m 2 min 0 min 816 W/m 25,1 km/h (4 Bft)
09.05.2015 11:26 18,3 C 16,7 C 68 % 1015,9 hPa 0,0 l/m 2 min 0 min 383 W/m 33,5 km/h (5 Bft)
09.05.2015 11:28 18,4 C 16,7 C 67 % 1016,0 hPa 0,0 l/m 2 min 0 min 595 W/m 35,6 km/h (5 Bft)
09.05.2015 11:30 18,4 C 16,1 C 67 % 1015,9 hPa 0,0 l/m 2 min 0 min 582 W/m 29,3 km/h (5 Bft)
09.05.2015 11:32 18,5 C 16,1 C 66 % 1015,8 hPa 0,0 l/m 0 min 0 min 292 W/m 31,4 km/h (5 Bft)
09.05.2015 11:34 18,5 C 16,1 C 66 % 1015,8 hPa 0,0 l/m 0 min 0 min 266 W/m 25,1 km/h (4 Bft)
09.05.2015 11:36 18,6 C 16,1 C 66 % 1015,8 hPa 0,0 l/m 2 min 0 min 790 W/m 31,4 km/h (5 Bft)
09.05.2015 11:38 18,7 C 16,7 C 66 % 1015,9 hPa 0,0 l/m 2 min 0 min 830 W/m 31,4 km/h (5 Bft)
09.05.2015 11:40 18,7 C 16,7 C 65 % 1015,8 hPa 0,0 l/m 2 min 0 min 751 W/m 37,7 km/h (5 Bft)
09.05.2015 11:42 18,9 C 16,7 C 64 % 1015,8 hPa 0,0 l/m 2 min 0 min 543 W/m 31,4 km/h (5 Bft)
09.05.2015 11:44 19,1 C 16,7 C 64 % 1015,8 hPa 0,0 l/m 2 min 0 min 480 W/m 27,2 km/h (4 Bft)
09.05.2015 11:46 19,2 C 17,2 C 63 % 1016,0 hPa 0,0 l/m 2 min 0 min 622 W/m 27,2 km/h (4 Bft)
09.05.2015 11:48 19,3 C 17,2 C 64 % 1015,9 hPa 0,0 l/m 2 min 0 min 767 W/m 31,4 km/h (5 Bft)
09.05.2015 11:50 19,4 C 17,2 C 63 % 1015,8 hPa 0,0 l/m 2 min 0 min 865 W/m 37,7 km/h (5 Bft)
09.05.2015 11:52 19,5 C 17,2 C 63 % 1015,8 hPa 0,0 l/m 2 min 0 min 853 W/m 39,7 km/h (6 Bft)
09.05.2015 11:54 19,6 C 17,2 C 63 % 1015,9 hPa 0,0 l/m 2 min 0 min 876 W/m 33,5 km/h (5 Bft)
09.05.2015 11:56 19,7 C 17,2 C 63 % 1015,8 hPa 0,0 l/m 2 min 0 min 902 W/m 20,9 km/h (4 Bft)
09.05.2015 11:58 19,8 C 17,8 C 64 % 1015,9 hPa 0,0 l/m 2 min 0 min 896 W/m 20,9 km/h (4 Bft)
09.05.2015 12:00 20,0 C 17,8 C 63 % 1015,8 hPa 0,0 l/m 2 min 0 min 859 W/m 31,4 km/h (5 Bft)
09.05.2015 12:02 20,0 C 17,2 C 61 % 1015,6 hPa 0,0 l/m 2 min 0 min 805 W/m 41,8 km/h (6 Bft)
09.05.2015 12:06 20,0 C 17,2 C 60 % 1015,9 hPa 0,0 l/m 2 min 0 min 821 W/m 41,8 km/h (6 Bft)
09.05.2015 12:08 20,0 C 16,7 C 61 % 1015,7 hPa 0,0 l/m 2 min 0 min 606 W/m 35,6 km/h (5 Bft)
09.05.2015 12:10 20,0 C 16,7 C 60 % 1015,7 hPa 0,0 l/m 0 min 0 min 297 W/m 48,1 km/h (6 Bft)
09.05.2015 12:12 19,9 C 16,7 C 58 % 1015,9 hPa 0,0 l/m 2 min 0 min 420 W/m 41,8 km/h (6 Bft)
09.05.2015 12:14 19,9 C 16,7 C 59 % 1015,7 hPa 0,0 l/m 2 min 0 min 800 W/m 43,9 km/h (6 Bft)
09.05.2015 12:16 19,8 C 16,7 C 59 % 1015,7 hPa 0,0 l/m 2 min 0 min 800 W/m 35,6 km/h (5 Bft)
09.05.2015 12:18 19,7 C 16,7 C 60 % 1015,8 hPa 0,0 l/m 2 min 0 min 800 W/m 35,6 km/h (5 Bft)
09.05.2015 12:20 19,7 C 16,7 C 61 % 1015,7 hPa 0,0 l/m 2 min 0 min 838 W/m 39,7 km/h (6 Bft)
09.05.2015 12:22 19,7 C 16,7 C 61 % 1015,8 hPa 0,0 l/m 2 min 0 min 868 W/m 39,7 km/h (6 Bft)
09.05.2015 12:24 19,7 C 17,2 C 62 % 1015,8 hPa 0,0 l/m 2 min 0 min 881 W/m 35,6 km/h (5 Bft)
09.05.2015 12:26 19,8 C 17,2 C 59 % 1016,1 hPa 0,0 l/m 2 min 0 min 912 W/m 43,9 km/h (6 Bft)
09.05.2015 12:28 19,9 C 17,2 C 60 % 1015,7 hPa 0,0 l/m 2 min 0 min 938 W/m 37,7 km/h (5 Bft)
09.05.2015 12:30 20,0 C 17,8 C 61 % 1015,8 hPa 0,0 l/m 2 min 0 min 951 W/m 35,6 km/h (5 Bft)
09.05.2015 12:32 20,1 C 17,8 C 60 % 1015,8 hPa 0,0 l/m 2 min 0 min 951 W/m 39,7 km/h (6 Bft)
09.05.2015 12:34 20,1 C 17,8 C 59 % 1015,8 hPa 0,0 l/m 2 min 0 min 951 W/m 33,5 km/h (5 Bft)
09.05.2015 12:36 20,1 C 17,8 C 59 % 1016,0 hPa 0,0 l/m 2 min 0 min 951 W/m 46,0 km/h (6 Bft)
09.05.2015 12:38 20,0 C 17,2 C 60 % 1016,0 hPa 0,0 l/m 2 min 0 min 926 W/m 37,7 km/h (5 Bft)
09.05.2015 12:40 19,9 C 17,2 C 59 % 1016,0 hPa 0,0 l/m 0 min 0 min 360 W/m 31,4 km/h (5 Bft)
09.05.2015 12:42 19,9 C 17,8 C 59 % 1016,1 hPa 0,0 l/m 2 min 0 min 814 W/m 43,9 km/h (6 Bft)
09.05.2015 12:44 19,8 C 17,8 C 59 % 1016,1 hPa 0,0 l/m 2 min 0 min 503 W/m 41,8 km/h (6 Bft)
09.05.2015 12:46 19,8 C 17,8 C 60 % 1016,1 hPa 0,0 l/m 2 min 0 min 462 W/m 33,5 km/h (5 Bft)
09.05.2015 12:48 19,8 C 17,8 C 60 % 1016,0 hPa 0,0 l/m 2 min 0 min 462 W/m 35,6 km/h (5 Bft)
09.05.2015 12:50 19,8 C 17,8 C 58 % 1016,0 hPa 0,0 l/m 2 min 0 min 1007 W/m 52,3 km/h (7 Bft)
09.05.2015 12:52 19,8 C 17,8 C 59 % 1016,1 hPa 0,0 l/m 2 min 0 min 635 W/m 41,8 km/h (6 Bft)
09.05.2015 12:54 19,8 C 17,8 C 59 % 1016,0 hPa 0,0 l/m 0 min 0 min 362 W/m 31,4 km/h (5 Bft)
09.05.2015 12:56 19,8 C 17,8 C 60 % 1016,1 hPa 0,0 l/m 0 min 0 min 346 W/m 25,1 km/h (4 Bft)
09.05.2015 12:58 19,8 C 17,8 C 59 % 1016,2 hPa 0,0 l/m 0 min 0 min 342 W/m 39,7 km/h (6 Bft)
09.05.2015 13:00 19,8 C 17,2 C 58 % 1016,2 hPa 0,0 l/m 0 min 0 min 324 W/m 37,7 km/h (5 Bft)
09.05.2015 13:02 19,6 C 17,2 C 58 % 1016,3 hPa 0,0 l/m 0 min 0 min 309 W/m 41,8 km/h (6 Bft)
09.05.2015 13:04 19,5 C 17,2 C 59 % 1016,3 hPa 0,0 l/m 0 min 0 min 322 W/m 46,0 km/h (6 Bft)
09.05.2015 13:06 19,4 C 17,2 C 58 % 1016,2 hPa 0,0 l/m 0 min 0 min 322 W/m 43,9 km/h (6 Bft)
09.05.2015 13:08 19,3 C 17,2 C 59 % 1016,2 hPa 0,0 l/m 0 min 0 min 322 W/m 41,8 km/h (6 Bft)
09.05.2015 13:10 19,3 C 17,8 C 59 % 1016,2 hPa 0,0 l/m 0 min 0 min 322 W/m 35,6 km/h (5 Bft)
09.05.2015 13:12 19,2 C 17,8 C 59 % 1016,2 hPa 0,0 l/m 0 min 0 min 312 W/m 31,4 km/h (5 Bft)
09.05.2015 13:14 19,2 C 17,8 C 59 % 1016,2 hPa 0,0 l/m 0 min 0 min 351 W/m 23,0 km/h (4 Bft)
09.05.2015 13:16 19,2 C 17,2 C 61 % 1016,2 hPa 0,0 l/m 0 min 0 min 266 W/m 31,4 km/h (5 Bft)
09.05.2015 13:18 19,2 C 17,2 C 61 % 1016,3 hPa 0,0 l/m 0 min 0 min 296 W/m 25,1 km/h (4 Bft)
09.05.2015 13:20 19,2 C 17,2 C 61 % 1016,3 hPa 0,0 l/m 0 min 0 min 304 W/m 27,2 km/h (4 Bft)
09.05.2015 13:22 19,2 C 17,2 C 60 % 1016,2 hPa 0,0 l/m 0 min 0 min 281 W/m 31,4 km/h (5 Bft)
09.05.2015 13:24 19,3 C 17,8 C 61 % 1016,3 hPa 0,0 l/m 2 min 0 min 893 W/m 27,2 km/h (4 Bft)
09.05.2015 13:26 19,3 C 17,8 C 60 % 1016,3 hPa 0,0 l/m 2 min 0 min 642 W/m 29,3 km/h (5 Bft)
09.05.2015 13:28 19,4 C 17,8 C 60 % 1016,3 hPa 0,0 l/m 0 min 0 min 380 W/m 27,2 km/h (4 Bft)
09.05.2015 13:30 19,4 C 17,8 C 59 % 1016,4 hPa 0,0 l/m 0 min 0 min 390 W/m 29,3 km/h (5 Bft)
09.05.2015 13:32 19,4 C 18,3 C 59 % 1016,4 hPa 0,0 l/m 2 min 0 min 438 W/m 27,2 km/h (4 Bft)
09.05.2015 13:34 19,4 C 18,3 C 59 % 1016,3 hPa 0,0 l/m 2 min 0 min 438 W/m 27,2 km/h (4 Bft)
09.05.2015 13:36 19,5 C 18,3 C 58 % 1016,2 hPa 0,0 l/m 0 min 0 min 399 W/m 25,1 km/h (4 Bft)
09.05.2015 13:38 19,6 C 17,8 C 59 % 1016,3 hPa 0,0 l/m 0 min 0 min 380 W/m 33,5 km/h (5 Bft)
09.05.2015 13:40 19,5 C 17,8 C 59 % 1016,2 hPa 0,0 l/m 0 min 0 min 314 W/m 37,7 km/h (5 Bft)
09.05.2015 13:42 19,4 C 17,2 C 59 % 1016,4 hPa 0,0 l/m 0 min 0 min 376 W/m 33,5 km/h (5 Bft)
09.05.2015 13:44 19,4 C 17,2 C 58 % 1016,3 hPa 0,0 l/m 2 min 0 min 416 W/m 39,7 km/h (6 Bft)
09.05.2015 13:46 19,5 C 17,8 C 58 % 1016,3 hPa 0,0 l/m 2 min 0 min 829 W/m 37,7 km/h (5 Bft)
09.05.2015 13:48 19,6 C 18,3 C 59 % 1016,3 hPa 0,0 l/m 2 min 0 min 1037 W/m 37,7 km/h (5 Bft)
09.05.2015 13:50 19,7 C 18,3 C 57 % 1016,4 hPa 0,0 l/m 2 min 0 min 844 W/m 41,8 km/h (6 Bft)
09.05.2015 13:52 19,8 C 17,8 C 58 % 1016,3 hPa 0,0 l/m 2 min 0 min 593 W/m 29,3 km/h (5 Bft)
09.05.2015 13:54 19,9 C 18,3 C 58 % 1016,3 hPa 0,0 l/m 2 min 0 min 541 W/m 33,5 km/h (5 Bft)
09.05.2015 13:56 19,9 C 18,3 C 56 % 1016,4 hPa 0,0 l/m 2 min 0 min 468 W/m 35,6 km/h (5 Bft)
09.05.2015 13:58 19,8 C 17,8 C 56 % 1016,5 hPa 0,0 l/m 2 min 0 min 465 W/m 33,5 km/h (5 Bft)
09.05.2015 14:00 19,8 C 17,8 C 56 % 1016,5 hPa 0,0 l/m 2 min 0 min 453 W/m 35,6 km/h (5 Bft)
09.05.2015 14:02 19,8 C 17,8 C 56 % 1016,4 hPa 0,0 l/m 0 min 0 min 384 W/m 35,6 km/h (5 Bft)
09.05.2015 14:04 19,7 C 17,8 C 56 % 1016,4 hPa 0,0 l/m 0 min 0 min 374 W/m 29,3 km/h (5 Bft)
09.05.2015 14:06 19,7 C 17,2 C 56 % 1016,5 hPa 0,0 l/m 0 min 0 min 364 W/m 37,7 km/h (5 Bft)
09.05.2015 14:08 19,6 C 17,2 C 56 % 1016,5 hPa 0,0 l/m 0 min 0 min 381 W/m 20,9 km/h (4 Bft)
09.05.2015 14:10 19,6 C 17,8 C 57 % 1016,5 hPa 0,0 l/m 0 min 0 min 381 W/m 37,7 km/h (5 Bft)
09.05.2015 14:12 19,6 C 17,8 C 56 % 1016,6 hPa 0,0 l/m 2 min 0 min 509 W/m 29,3 km/h (5 Bft)
09.05.2015 14:14 19,7 C 17,8 C 57 % 1016,5 hPa 0,0 l/m 2 min 0 min 582 W/m 33,5 km/h (5 Bft)
09.05.2015 14:16 19,7 C 17,8 C 56 % 1016,5 hPa 0,0 l/m 2 min 0 min 570 W/m 43,9 km/h (6 Bft)
09.05.2015 14:18 19,7 C 17,8 C 56 % 1016,6 hPa 0,0 l/m 2 min 0 min 594 W/m 43,9 km/h (6 Bft)
09.05.2015 14:20 19,7 C 17,8 C 56 % 1016,6 hPa 0,0 l/m 2 min 0 min 449 W/m 35,6 km/h (5 Bft)
09.05.2015 14:22 19,6 C 17,2 C 56 % 1016,6 hPa 0,0 l/m 0 min 0 min 374 W/m 33,5 km/h (5 Bft)
09.05.2015 14:24 19,6 C 17,2 C 56 % 1016,5 hPa 0,0 l/m 0 min 0 min 354 W/m 27,2 km/h (4 Bft)
09.05.2015 14:26 19,6 C 17,2 C 57 % 1016,5 hPa 0,0 l/m 0 min 0 min 350 W/m 39,7 km/h (6 Bft)
09.05.2015 14:28 19,5 C 17,2 C 56 % 1016,6 hPa 0,0 l/m 2 min 0 min 405 W/m 37,7 km/h (5 Bft)
09.05.2015 14:30 19,4 C 17,8 C 56 % 1016,6 hPa 0,0 l/m 2 min 0 min 614 W/m 37,7 km/h (5 Bft)
09.05.2015 14:32 19,4 C 17,8 C 57 % 1016,6 hPa 0,0 l/m 2 min 0 min 514 W/m 35,6 km/h (5 Bft)
09.05.2015 14:34 19,3 C 17,2 C 56 % 1016,6 hPa 0,0 l/m 0 min 0 min 353 W/m 35,6 km/h (5 Bft)
09.05.2015 14:36 19,3 C 17,2 C 56 % 1016,6 hPa 0,0 l/m 0 min 0 min 360 W/m 37,7 km/h (5 Bft)
09.05.2015 14:38 19,2 C 17,2 C 56 % 1016,5 hPa 0,0 l/m 2 min 0 min 404 W/m 29,3 km/h (5 Bft)
09.05.2015 14:40 19,2 C 17,2 C 57 % 1016,6 hPa 0,0 l/m 2 min 0 min 399 W/m 43,9 km/h (6 Bft)
09.05.2015 14:42 19,2 C 17,2 C 57 % 1016,6 hPa 0,0 l/m 2 min 0 min 403 W/m 43,9 km/h (6 Bft)
09.05.2015 14:44 19,2 C 17,2 C 57 % 1016,7 hPa 0,0 l/m 0 min 0 min 321 W/m 35,6 km/h (5 Bft)
09.05.2015 14:46 19,1 C 17,2 C 58 % 1016,7 hPa 0,0 l/m 0 min 0 min 313 W/m 31,4 km/h (5 Bft)
09.05.2015 14:48 19,1 C 17,2 C 58 % 1016,8 hPa 0,0 l/m 0 min 0 min 300 W/m 29,3 km/h (5 Bft)
09.05.2015 14:50 19,0 C 17,2 C 59 % 1016,8 hPa 0,0 l/m 0 min 0 min 311 W/m 33,5 km/h (5 Bft)
09.05.2015 14:52 19,0 C 17,2 C 59 % 1016,8 hPa 0,0 l/m 0 min 0 min 381 W/m 33,5 km/h (5 Bft)
09.05.2015 14:54 18,9 C 17,2 C 58 % 1016,7 hPa 0,0 l/m 2 min 0 min 538 W/m 39,7 km/h (6 Bft)
09.05.2015 14:56 18,9 C 17,2 C 58 % 1016,7 hPa 0,0 l/m 2 min 0 min 585 W/m 41,8 km/h (6 Bft)
09.05.2015 14:58 18,9 C 17,2 C 58 % 1016,7 hPa 0,0 l/m 2 min 0 min 554 W/m 31,4 km/h (5 Bft)
09.05.2015 15:00 19,0 C 17,2 C 59 % 1016,8 hPa 0,0 l/m 2 min 0 min 597 W/m 29,3 km/h (5 Bft)
09.05.2015 15:02 19,1 C 17,8 C 60 % 1016,8 hPa 0,0 l/m 2 min 0 min 763 W/m 37,7 km/h (5 Bft)
09.05.2015 15:04 19,2 C 17,8 C 60 % 1016,8 hPa 0,0 l/m 2 min 0 min 764 W/m 18,8 km/h (3 Bft)
09.05.2015 15:06 19,3 C 17,8 C 59 % 1016,8 hPa 0,0 l/m 0 min 0 min 347 W/m 27,2 km/h (4 Bft)
09.05.2015 15:08 19,4 C 17,2 C 59 % 1016,7 hPa 0,0 l/m 0 min 0 min 334 W/m 25,1 km/h (4 Bft)
09.05.2015 15:10 19,4 C 17,2 C 59 % 1016,8 hPa 0,0 l/m 0 min 0 min 336 W/m 27,2 km/h (4 Bft)
09.05.2015 15:12 19,4 C 17,2 C 59 % 1016,8 hPa 0,0 l/m 0 min 0 min 329 W/m 23,0 km/h (4 Bft)
09.05.2015 15:14 19,4 C 17,2 C 58 % 1016,8 hPa 0,0 l/m 0 min 0 min 307 W/m 39,7 km/h (6 Bft)
09.05.2015 15:16 19,3 C 17,2 C 58 % 1016,8 hPa 0,0 l/m 0 min 0 min 324 W/m 27,2 km/h (4 Bft)
09.05.2015 15:18 19,2 C 17,2 C 59 % 1016,8 hPa 0,0 l/m 2 min 0 min 380 W/m 39,7 km/h (6 Bft)
09.05.2015 15:20 19,2 C 17,2 C 58 % 1016,8 hPa 0,0 l/m 0 min 0 min 366 W/m 27,2 km/h (4 Bft)
09.05.2015 15:22 19,2 C 17,2 C 58 % 1016,7 hPa 0,0 l/m 0 min 0 min 368 W/m 41,8 km/h (6 Bft)
09.05.2015 15:24 19,2 C 17,2 C 57 % 1016,8 hPa 0,0 l/m 2 min 0 min 435 W/m 37,7 km/h (5 Bft)
09.05.2015 15:26 19,2 C 17,2 C 58 % 1016,8 hPa 0,0 l/m 2 min 0 min 495 W/m 29,3 km/h (5 Bft)
09.05.2015 15:28 19,3 C 17,2 C 58 % 1016,9 hPa 0,0 l/m 0 min 0 min 332 W/m 31,4 km/h (5 Bft)
09.05.2015 15:30 19,2 C 17,2 C 58 % 1016,9 hPa 0,0 l/m 0 min 0 min 299 W/m 33,5 km/h (5 Bft)
09.05.2015 15:32 19,2 C 17,2 C 58 % 1016,8 hPa 0,0 l/m 0 min 0 min 348 W/m 29,3 km/h (5 Bft)
09.05.2015 15:34 19,2 C 16,7 C 59 % 1016,9 hPa 0,0 l/m 2 min 0 min 392 W/m 27,2 km/h (4 Bft)
09.05.2015 15:36 19,2 C 16,7 C 59 % 1016,8 hPa 0,0 l/m 0 min 0 min 292 W/m 27,2 km/h (4 Bft)
09.05.2015 15:38 19,2 C 17,2 C 60 % 1016,8 hPa 0,0 l/m 0 min 0 min 292 W/m 25,1 km/h (4 Bft)
09.05.2015 15:40 19,3 C 17,8 C 59 % 1016,9 hPa 0,0 l/m 0 min 0 min 292 W/m 35,6 km/h (5 Bft)
09.05.2015 15:42 19,4 C 17,8 C 58 % 1016,8 hPa 0,0 l/m 2 min 0 min 461 W/m 29,3 km/h (5 Bft)
09.05.2015 15:44 19,5 C 17,8 C 57 % 1016,7 hPa 0,0 l/m 2 min 0 min 725 W/m 37,7 km/h (5 Bft)
09.05.2015 15:46 19,7 C 18,3 C 56 % 1016,8 hPa 0,0 l/m 2 min 0 min 987 W/m 35,6 km/h (5 Bft)
09.05.2015 15:48 19,8 C 17,8 C 55 % 1016,8 hPa 0,0 l/m 2 min 0 min 991 W/m 27,2 km/h (4 Bft)
09.05.2015 15:50 19,9 C 17,8 C 55 % 1016,8 hPa 0,0 l/m 2 min 0 min 991 W/m 31,4 km/h (5 Bft)
09.05.2015 15:52 20,1 C 17,8 C 55 % 1016,8 hPa 0,0 l/m 2 min 0 min 991 W/m 43,9 km/h (6 Bft)
09.05.2015 15:54 20,1 C 17,8 C 55 % 1016,9 hPa 0,0 l/m 2 min 0 min 501 W/m 33,5 km/h (5 Bft)
09.05.2015 15:56 20,1 C 17,2 C 55 % 1016,8 hPa 0,0 l/m 0 min 0 min 256 W/m 35,6 km/h (5 Bft)
09.05.2015 15:58 19,9 C 17,2 C 56 % 1017,0 hPa 0,0 l/m 0 min 0 min 206 W/m 25,1 km/h (4 Bft)
09.05.2015 16:00 19,8 C 16,7 C 56 % 1017,0 hPa 0,0 l/m 0 min 0 min 177 W/m 29,3 km/h (5 Bft)
09.05.2015 16:02 19,6 C 16,7 C 55 % 1016,9 hPa 0,0 l/m 0 min 0 min 166 W/m 37,7 km/h (5 Bft)
09.05.2015 16:04 19,4 C 16,1 C 54 % 1016,9 hPa 0,0 l/m 0 min 0 min 144 W/m 29,3 km/h (5 Bft)
09.05.2015 16:06 19,3 C 16,1 C 54 % 1017,0 hPa 0,0 l/m 0 min 0 min 131 W/m 37,7 km/h (5 Bft)
09.05.2015 16:08 19,1 C 16,1 C 54 % 1017,0 hPa 0,0 l/m 0 min 0 min 119 W/m 35,6 km/h (5 Bft)
09.05.2015 16:10 18,9 C 15,6 C 54 % 1017,0 hPa 0,0 l/m 0 min 0 min 108 W/m 27,2 km/h (4 Bft)
09.05.2015 16:12 18,8 C 15,6 C 54 % 1016,9 hPa 0,0 l/m 0 min 0 min 132 W/m 27,2 km/h (4 Bft)
09.05.2015 16:14 18,7 C 15,6 C 55 % 1017,0 hPa 0,0 l/m 0 min 0 min 165 W/m 35,6 km/h (5 Bft)
09.05.2015 16:16 18,6 C 16,1 C 56 % 1017,1 hPa 0,0 l/m 0 min 0 min 199 W/m 33,5 km/h (5 Bft)
09.05.2015 16:18 18,5 C 16,1 C 58 % 1017,0 hPa 0,0 l/m 0 min 0 min 185 W/m 29,3 km/h (5 Bft)
09.05.2015 16:20 18,4 C 15,6 C 59 % 1017,2 hPa 0,0 l/m 0 min 2 min 138 W/m 35,6 km/h (5 Bft)
09.05.2015 16:22 18,3 C 15,6 C 59 % 1017,2 hPa 0,0 l/m 0 min 0 min 130 W/m 39,7 km/h (6 Bft)
09.05.2015 16:24 18,2 C 15,6 C 60 % 1017,2 hPa 0,0 l/m 0 min 0 min 130 W/m 25,1 km/h (4 Bft)
09.05.2015 16:26 18,1 C 15,6 C 60 % 1017,2 hPa 0,0 l/m 0 min 2 min 125 W/m 27,2 km/h (4 Bft)
09.05.2015 16:28 18,0 C 15,0 C 61 % 1017,3 hPa 0,0 l/m 0 min 0 min 135 W/m 27,2 km/h (4 Bft)
09.05.2015 16:30 17,9 C 15,6 C 61 % 1017,3 hPa 0,0 l/m 0 min 0 min 142 W/m 25,1 km/h (4 Bft)
09.05.2015 16:32 17,8 C 15,6 C 62 % 1017,3 hPa 0,0 l/m 0 min 0 min 121 W/m 20,9 km/h (4 Bft)
09.05.2015 16:34 17,8 C 15,6 C 62 % 1017,3 hPa 0,0 l/m 0 min 2 min 134 W/m 27,2 km/h (4 Bft)
09.05.2015 16:36 17,7 C 15,6 C 62 % 1017,3 hPa 0,0 l/m 0 min 2 min 112 W/m 29,3 km/h (5 Bft)
09.05.2015 16:38 17,7 C 15,0 C 62 % 1017,2 hPa 0,0 l/m 0 min 2 min 73 W/m 29,3 km/h (5 Bft)
09.05.2015 16:40 17,7 C 15,0 C 61 % 1017,3 hPa 0,0 l/m 0 min 2 min 65 W/m 27,2 km/h (4 Bft)
09.05.2015 16:42 17,6 C 15,0 C 62 % 1017,4 hPa 0,0 l/m 0 min 2 min 66 W/m 37,7 km/h (5 Bft)
09.05.2015 16:44 17,5 C 14,4 C 62 % 1017,6 hPa 0,0 l/m 0 min 2 min 84 W/m 35,6 km/h (5 Bft)
09.05.2015 16:46 17,4 C 14,4 C 63 % 1017,6 hPa 0,0 l/m 0 min 2 min 114 W/m 33,5 km/h (5 Bft)
09.05.2015 16:48 17,4 C 14,4 C 64 % 1017,7 hPa 0,0 l/m 0 min 2 min 147 W/m 27,2 km/h (4 Bft)
09.05.2015 16:50 17,3 C 13,9 C 65 % 1017,9 hPa 0,0 l/m 0 min 2 min 146 W/m 37,7 km/h (5 Bft)
09.05.2015 16:52 17,1 C 13,3 C 65 % 1018,0 hPa 0,0 l/m 0 min 2 min 124 W/m 33,5 km/h (5 Bft)
09.05.2015 16:54 16,9 C 13,3 C 67 % 1018,1 hPa 0,0 l/m 0 min 2 min 158 W/m 41,8 km/h (6 Bft)
09.05.2015 16:56 16,7 C 12,8 C 69 % 1018,0 hPa 0,0 l/m 0 min 2 min 209 W/m 29,3 km/h (5 Bft)
09.05.2015 16:58 16,5 C 13,3 C 69 % 1018,0 hPa 0,0 l/m 0 min 2 min 210 W/m 33,5 km/h (5 Bft)
09.05.2015 17:00 16,3 C 13,3 C 70 % 1018,0 hPa 0,0 l/m 0 min 2 min 207 W/m 31,4 km/h (5 Bft)
09.05.2015 17:02 16,1 C 13,3 C 70 % 1017,9 hPa 0,0 l/m 0 min 2 min 219 W/m 29,3 km/h (5 Bft)
09.05.2015 17:04 16,1 C 13,3 C 71 % 1017,7 hPa 0,0 l/m 0 min 2 min 277 W/m 25,1 km/h (4 Bft)
09.05.2015 17:06 16,1 C 13,9 C 72 % 1017,5 hPa 0,0 l/m 2 min 2 min 376 W/m 27,2 km/h (4 Bft)
09.05.2015 17:08 16,1 C 13,9 C 72 % 1017,6 hPa 0,0 l/m 2 min 2 min 552 W/m 23,0 km/h (4 Bft)
09.05.2015 17:10 16,1 C 13,9 C 72 % 1017,7 hPa 0,0 l/m 2 min 0 min 614 W/m 25,1 km/h (4 Bft)
09.05.2015 17:12 16,2 C 13,9 C 72 % 1017,7 hPa 0,0 l/m 2 min 0 min 540 W/m 20,9 km/h (4 Bft)
09.05.2015 17:14 16,3 C 13,9 C 71 % 1017,6 hPa 0,0 l/m 2 min 0 min 551 W/m 16,7 km/h (3 Bft)
09.05.2015 17:16 16,4 C 13,9 C 72 % 1017,7 hPa 0,0 l/m 2 min 0 min 539 W/m 29,3 km/h (5 Bft)
09.05.2015 17:18 16,6 C 13,9 C 70 % 1017,6 hPa 0,0 l/m 2 min 0 min 530 W/m 25,1 km/h (4 Bft)
09.05.2015 17:20 16,7 C 13,9 C 70 % 1017,7 hPa 0,0 l/m 2 min 0 min 524 W/m 27,2 km/h (4 Bft)
09.05.2015 17:22 16,7 C 14,4 C 69 % 1017,7 hPa 0,0 l/m 2 min 0 min 517 W/m 27,2 km/h (4 Bft)
09.05.2015 17:24 16,9 C 14,4 C 69 % 1017,7 hPa 0,0 l/m 2 min 0 min 513 W/m 27,2 km/h (4 Bft)
09.05.2015 17:26 17,0 C 14,4 C 68 % 1017,7 hPa 0,0 l/m 2 min 0 min 508 W/m 23,0 km/h (4 Bft)
09.05.2015 17:28 17,1 C 14,4 C 67 % 1017,7 hPa 0,0 l/m 2 min 0 min 501 W/m 23,0 km/h (4 Bft)
09.05.2015 17:30 17,1 C 14,4 C 67 % 1017,7 hPa 0,0 l/m 2 min 0 min 496 W/m 16,7 km/h (3 Bft)
09.05.2015 17:32 17,2 C 14,4 C 68 % 1017,8 hPa 0,0 l/m 2 min 0 min 492 W/m 31,4 km/h (5 Bft)
09.05.2015 17:34 17,2 C 14,4 C 66 % 1017,7 hPa 0,0 l/m 2 min 0 min 486 W/m 35,6 km/h (5 Bft)
09.05.2015 17:36 17,3 C 14,4 C 66 % 1017,8 hPa 0,0 l/m 2 min 0 min 481 W/m 31,4 km/h (5 Bft)
09.05.2015 17:38 17,3 C 14,4 C 65 % 1017,8 hPa 0,0 l/m 2 min 0 min 478 W/m 27,2 km/h (4 Bft)
09.05.2015 17:40 17,3 C 14,4 C 65 % 1017,8 hPa 0,0 l/m 2 min 0 min 478 W/m 35,6 km/h (5 Bft)
09.05.2015 17:42 17,3 C 14,4 C 65 % 1017,8 hPa 0,0 l/m 2 min 0 min 443 W/m 31,4 km/h (5 Bft)
09.05.2015 17:44 17,3 C 14,4 C 64 % 1017,7 hPa 0,0 l/m 2 min 0 min 479 W/m 37,7 km/h (5 Bft)
09.05.2015 17:46 17,2 C 14,4 C 64 % 1017,8 hPa 0,0 l/m 2 min 0 min 474 W/m 46,0 km/h (6 Bft)
09.05.2015 17:48 17,2 C 14,4 C 64 % 1017,7 hPa 0,0 l/m 2 min 0 min 483 W/m 35,6 km/h (5 Bft)
09.05.2015 17:50 17,2 C 14,4 C 64 % 1017,9 hPa 0,0 l/m 2 min 0 min 472 W/m 29,3 km/h (5 Bft)
09.05.2015 17:52 17,2 C 14,4 C 63 % 1017,8 hPa 0,0 l/m 2 min 0 min 417 W/m 23,0 km/h (4 Bft)
09.05.2015 17:54 17,2 C 14,4 C 63 % 1017,9 hPa 0,0 l/m 2 min 0 min 523 W/m 31,4 km/h (5 Bft)
09.05.2015 17:56 17,3 C 14,4 C 63 % 1018,0 hPa 0,0 l/m 2 min 0 min 464 W/m 31,4 km/h (5 Bft)
09.05.2015 17:58 17,3 C 14,4 C 64 % 1017,9 hPa 0,0 l/m 2 min 0 min 457 W/m 29,3 km/h (5 Bft)
09.05.2015 18:00 17,3 C 14,4 C 63 % 1017,8 hPa 0,0 l/m 2 min 0 min 449 W/m 29,3 km/h (5 Bft)
09.05.2015 18:02 17,3 C 14,4 C 63 % 1017,9 hPa 0,0 l/m 0 min 0 min 221 W/m 41,8 km/h (6 Bft)
09.05.2015 18:06 17,3 C 14,4 C 62 % 1017,8 hPa 0,0 l/m 0 min 0 min 167 W/m 41,8 km/h (6 Bft)
09.05.2015 18:08 17,3 C 14,4 C 61 % 1017,7 hPa 0,0 l/m 0 min 0 min 200 W/m 50,2 km/h (7 Bft)
09.05.2015 18:10 17,3 C 14,4 C 62 % 1017,7 hPa 0,0 l/m 0 min 0 min 141 W/m 31,4 km/h (5 Bft)
09.05.2015 18:12 17,3 C 14,4 C 62 % 1017,7 hPa 0,0 l/m 2 min 0 min 286 W/m 39,7 km/h (6 Bft)
09.05.2015 18:14 17,3 C 14,4 C 62 % 1017,7 hPa 0,0 l/m 2 min 0 min 352 W/m 23,0 km/h (4 Bft)
09.05.2015 18:16 17,3 C 14,4 C 60 % 1017,6 hPa 0,0 l/m 0 min 0 min 128 W/m 46,0 km/h (6 Bft)
09.05.2015 18:18 17,3 C 14,4 C 61 % 1017,7 hPa 0,0 l/m 2 min 0 min 424 W/m 35,6 km/h (5 Bft)
09.05.2015 18:20 17,3 C 14,4 C 60 % 1017,6 hPa 0,0 l/m 2 min 0 min 418 W/m 27,2 km/h (4 Bft)
09.05.2015 18:22 17,3 C 14,4 C 61 % 1017,6 hPa 0,0 l/m 2 min 0 min 412 W/m 35,6 km/h (5 Bft)
09.05.2015 18:24 17,4 C 15,0 C 60 % 1017,6 hPa 0,0 l/m 2 min 0 min 420 W/m 48,1 km/h (6 Bft)
09.05.2015 18:26 17,4 C 14,4 C 59 % 1017,6 hPa 0,0 l/m 2 min 0 min 385 W/m 50,2 km/h (7 Bft)
09.05.2015 18:28 17,5 C 14,4 C 60 % 1017,8 hPa 0,0 l/m 2 min 0 min 371 W/m 39,7 km/h (6 Bft)
09.05.2015 18:30 17,5 C 14,4 C 59 % 1017,8 hPa 0,0 l/m 2 min 0 min 357 W/m 39,7 km/h (6 Bft)
09.05.2015 18:32 17,5 C 14,4 C 59 % 1017,9 hPa 0,0 l/m 2 min 0 min 355 W/m 46,0 km/h (6 Bft)
09.05.2015 18:34 17,5 C 14,4 C 59 % 1017,8 hPa 0,0 l/m 2 min 0 min 354 W/m 41,8 km/h (6 Bft)
09.05.2015 18:36 17,4 C 14,4 C 59 % 1017,8 hPa 0,0 l/m 2 min 0 min 349 W/m 39,7 km/h (6 Bft)
09.05.2015 18:38 17,4 C 14,4 C 59 % 1017,7 hPa 0,0 l/m 0 min 0 min 171 W/m 39,7 km/h (6 Bft)
09.05.2015 18:40 17,4 C 14,4 C 60 % 1017,7 hPa 0,0 l/m 2 min 0 min 295 W/m 29,3 km/h (5 Bft)
09.05.2015 18:42 17,4 C 14,4 C 60 % 1017,9 hPa 0,0 l/m 2 min 0 min 339 W/m 41,8 km/h (6 Bft)
09.05.2015 18:44 17,4 C 14,4 C 60 % 1017,8 hPa 0,0 l/m 2 min 0 min 322 W/m 35,6 km/h (5 Bft)
09.05.2015 18:46 17,4 C 14,4 C 60 % 1017,8 hPa 0,0 l/m 2 min 0 min 312 W/m 27,2 km/h (4 Bft)
09.05.2015 18:48 17,3 C 14,4 C 60 % 1017,9 hPa 0,0 l/m 2 min 0 min 218 W/m 35,6 km/h (5 Bft)
09.05.2015 18:50 17,3 C 14,4 C 60 % 1018,0 hPa 0,0 l/m 0 min 0 min 105 W/m 33,5 km/h (5 Bft)
09.05.2015 18:52 17,3 C 13,9 C 60 % 1018,0 hPa 0,0 l/m 0 min 0 min 101 W/m 37,7 km/h (5 Bft)
09.05.2015 18:54 17,2 C 13,9 C 59 % 1017,9 hPa 0,0 l/m 0 min 0 min 131 W/m 31,4 km/h (5 Bft)
09.05.2015 18:56 17,2 C 13,9 C 59 % 1017,9 hPa 0,0 l/m 0 min 0 min 125 W/m 31,4 km/h (5 Bft)
09.05.2015 18:58 17,1 C 13,9 C 59 % 1017,9 hPa 0,0 l/m 0 min 0 min 122 W/m 37,7 km/h (5 Bft)
09.05.2015 19:00 17,1 C 14,4 C 60 % 1017,9 hPa 0,0 l/m 2 min 0 min 286 W/m 33,5 km/h (5 Bft)
09.05.2015 19:02 17,1 C 13,9 C 60 % 1017,8 hPa 0,0 l/m 2 min 0 min 221 W/m 29,3 km/h (5 Bft)
09.05.2015 19:04 17,1 C 13,9 C 60 % 1017,9 hPa 0,0 l/m 2 min 0 min 253 W/m 48,1 km/h (6 Bft)
09.05.2015 19:06 17,0 C 13,9 C 60 % 1017,8 hPa 0,0 l/m 0 min 0 min 76 W/m 37,7 km/h (5 Bft)
09.05.2015 19:08 16,9 C 13,9 C 60 % 1017,8 hPa 0,0 l/m 0 min 0 min 90 W/m 25,1 km/h (4 Bft)
09.05.2015 19:10 16,9 C 13,9 C 61 % 1017,8 hPa 0,0 l/m 0 min 0 min 103 W/m 31,4 km/h (5 Bft)
09.05.2015 19:12 16,9 C 14,4 C 61 % 1017,8 hPa 0,0 l/m 0 min 0 min 115 W/m 18,8 km/h (3 Bft)
09.05.2015 19:14 16,9 C 14,4 C 61 % 1017,8 hPa 0,0 l/m 0 min 0 min 119 W/m 16,7 km/h (3 Bft)
09.05.2015 19:16 16,9 C 14,4 C 61 % 1017,8 hPa 0,0 l/m 0 min 0 min 119 W/m 18,8 km/h (3 Bft)
09.05.2015 19:18 16,9 C 14,4 C 62 % 1017,8 hPa 0,0 l/m 0 min 0 min 95 W/m 23,0 km/h (4 Bft)
09.05.2015 19:20 16,9 C 14,4 C 61 % 1017,7 hPa 0,0 l/m 0 min 0 min 92 W/m 37,7 km/h (5 Bft)
09.05.2015 19:22 16,8 C 14,4 C 61 % 1017,8 hPa 0,0 l/m 0 min 0 min 111 W/m 41,8 km/h (6 Bft)
09.05.2015 19:24 16,8 C 14,4 C 61 % 1017,7 hPa 0,0 l/m 0 min 0 min 110 W/m 31,4 km/h (5 Bft)
09.05.2015 19:26 16,8 C 14,4 C 62 % 1017,8 hPa 0,0 l/m 0 min 0 min 96 W/m 16,7 km/h (3 Bft)
09.05.2015 19:28 16,8 C 13,9 C 62 % 1017,9 hPa 0,0 l/m 0 min 0 min 90 W/m 33,5 km/h (5 Bft)
09.05.2015 19:30 16,8 C 13,9 C 62 % 1017,8 hPa 0,0 l/m 0 min 0 min 77 W/m 33,5 km/h (5 Bft)
09.05.2015 19:32 16,7 C 13,9 C 62 % 1017,9 hPa 0,0 l/m 0 min 0 min 65 W/m 27,2 km/h (4 Bft)
09.05.2015 19:34 16,7 C 13,9 C 62 % 1017,8 hPa 0,0 l/m 0 min 0 min 59 W/m 25,1 km/h (4 Bft)
09.05.2015 19:36 16,7 C 13,9 C 62 % 1017,9 hPa 0,0 l/m 0 min 0 min 61 W/m 25,1 km/h (4 Bft)
09.05.2015 19:38 16,7 C 13,9 C 63 % 1017,9 hPa 0,0 l/m 0 min 0 min 68 W/m 23,0 km/h (4 Bft)
09.05.2015 19:40 16,7 C 13,9 C 62 % 1017,9 hPa 0,0 l/m 0 min 0 min 63 W/m 25,1 km/h (4 Bft)
09.05.2015 19:42 16,6 C 13,9 C 63 % 1017,9 hPa 0,0 l/m 0 min 0 min 63 W/m 20,9 km/h (4 Bft)
09.05.2015 19:44 16,6 C 13,9 C 63 % 1017,9 hPa 0,0 l/m 0 min 0 min 63 W/m 25,1 km/h (4 Bft)
09.05.2015 19:46 16,6 C 13,9 C 62 % 1017,9 hPa 0,0 l/m 0 min 0 min 51 W/m 23,0 km/h (4 Bft)
09.05.2015 19:48 16,6 C 13,9 C 63 % 1017,9 hPa 0,0 l/m 0 min 0 min 47 W/m 16,7 km/h (3 Bft)
09.05.2015 19:50 16,6 C 13,9 C 63 % 1017,9 hPa 0,0 l/m 0 min 0 min 46 W/m 20,9 km/h (4 Bft)
09.05.2015 19:52 16,6 C 13,9 C 63 % 1018,0 hPa 0,0 l/m 0 min 0 min 53 W/m 23,0 km/h (4 Bft)
09.05.2015 19:54 16,5 C 13,9 C 63 % 1018,0 hPa 0,0 l/m 0 min 0 min 79 W/m 29,3 km/h (5 Bft)
09.05.2015 19:56 16,5 C 13,9 C 63 % 1018,0 hPa 0,0 l/m 0 min 0 min 72 W/m 27,2 km/h (4 Bft)
09.05.2015 19:58 16,4 C 13,9 C 63 % 1018,0 hPa 0,0 l/m 0 min 0 min 71 W/m 25,1 km/h (4 Bft)
09.05.2015 20:00 16,4 C 13,9 C 63 % 1018,0 hPa 0,0 l/m 0 min 0 min 76 W/m 31,4 km/h (5 Bft)
09.05.2015 20:02 16,4 C 13,9 C 63 % 1018,0 hPa 0,0 l/m 2 min 0 min 78 W/m 25,1 km/h (4 Bft)
09.05.2015 20:04 16,4 C 13,9 C 63 % 1018,0 hPa 0,0 l/m 2 min 0 min 77 W/m 29,3 km/h (5 Bft)
09.05.2015 20:06 16,4 C 13,9 C 63 % 1018,0 hPa 0,0 l/m 0 min 0 min 63 W/m 20,9 km/h (4 Bft)
09.05.2015 20:08 16,4 C 13,9 C 63 % 1018,2 hPa 0,0 l/m 0 min 0 min 48 W/m 29,3 km/h (5 Bft)
09.05.2015 20:10 16,4 C 13,9 C 63 % 1018,2 hPa 0,0 l/m 0 min 0 min 41 W/m 31,4 km/h (5 Bft)
09.05.2015 20:12 16,4 C 13,9 C 63 % 1018,2 hPa 0,0 l/m 0 min 0 min 29 W/m 37,7 km/h (5 Bft)
09.05.2015 20:14 16,4 C 13,9 C 62 % 1018,2 hPa 0,0 l/m 0 min 0 min 26 W/m 29,3 km/h (5 Bft)
09.05.2015 20:16 16,3 C 13,9 C 62 % 1018,3 hPa 0,0 l/m 0 min 0 min 30 W/m 35,6 km/h (5 Bft)
09.05.2015 20:18 16,3 C 13,9 C 62 % 1018,3 hPa 0,0 l/m 0 min 0 min 32 W/m 48,1 km/h (6 Bft)
09.05.2015 20:20 16,3 C 13,3 C 62 % 1018,3 hPa 0,0 l/m 0 min 0 min 29 W/m 35,6 km/h (5 Bft)
09.05.2015 20:22 16,3 C 13,3 C 63 % 1018,5 hPa 0,0 l/m 0 min 0 min 26 W/m 33,5 km/h (5 Bft)
09.05.2015 20:24 16,3 C 13,3 C 63 % 1018,5 hPa 0,0 l/m 0 min 0 min 24 W/m 31,4 km/h (5 Bft)
09.05.2015 20:26 16,2 C 13,3 C 63 % 1018,4 hPa 0,0 l/m 0 min 0 min 22 W/m 23,0 km/h (4 Bft)
09.05.2015 20:28 16,2 C 13,3 C 63 % 1018,5 hPa 0,0 l/m 0 min 0 min 21 W/m 31,4 km/h (5 Bft)
09.05.2015 20:30 16,2 C 13,3 C 64 % 1018,4 hPa 0,0 l/m 0 min 0 min 20 W/m 35,6 km/h (5 Bft)
09.05.2015 20:32 16,1 C 13,3 C 64 % 1018,5 hPa 0,0 l/m 0 min 0 min 19 W/m 20,9 km/h (4 Bft)
09.05.2015 20:34 16,1 C 13,3 C 64 % 1018,5 hPa 0,0 l/m 0 min 0 min 15 W/m 20,9 km/h (4 Bft)
09.05.2015 20:36 16,1 C 13,3 C 64 % 1018,6 hPa 0,0 l/m 0 min 0 min 14 W/m 31,4 km/h (5 Bft)
09.05.2015 20:38 16,0 C 13,3 C 64 % 1018,7 hPa 0,0 l/m 0 min 0 min 14 W/m 29,3 km/h (5 Bft)
09.05.2015 20:40 15,9 C 13,3 C 64 % 1018,7 hPa 0,0 l/m 0 min 0 min 13 W/m 27,2 km/h (4 Bft)
09.05.2015 20:42 15,9 C 13,3 C 65 % 1018,7 hPa 0,0 l/m 0 min 0 min 10 W/m 35,6 km/h (5 Bft)
09.05.2015 20:44 15,9 C 13,3 C 65 % 1018,7 hPa 0,0 l/m 0 min 0 min 7 W/m 27,2 km/h (4 Bft)
09.05.2015 20:46 15,9 C 13,3 C 65 % 1018,8 hPa 0,0 l/m 0 min 0 min 5 W/m 27,2 km/h (4 Bft)
09.05.2015 20:48 15,9 C 12,8 C 66 % 1018,9 hPa 0,0 l/m 0 min 2 min 3 W/m 20,9 km/h (4 Bft)
09.05.2015 20:50 15,8 C 12,8 C 67 % 1018,9 hPa 0,0 l/m 0 min 2 min 0 W/m 29,3 km/h (5 Bft)
09.05.2015 20:52 15,8 C 12,8 C 67 % 1019,0 hPa 0,0 l/m 0 min 2 min 1 W/m 43,9 km/h (6 Bft)
09.05.2015 20:54 15,8 C 12,2 C 68 % 1019,0 hPa 0,0 l/m 0 min 2 min 5 W/m 27,2 km/h (4 Bft)
09.05.2015 20:56 15,7 C 12,2 C 68 % 1019,1 hPa 0,0 l/m 0 min 0 min 5 W/m 27,2 km/h (4 Bft)
09.05.2015 20:58 15,7 C 12,2 C 68 % 1019,0 hPa 0,0 l/m 0 min 0 min 5 W/m 25,1 km/h (4 Bft)
09.05.2015 21:00 15,6 C 12,2 C 69 % 1019,0 hPa 0,0 l/m 0 min 0 min 5 W/m 18,8 km/h (3 Bft)
09.05.2015 21:02 15,6 C 12,8 C 69 % 1019,1 hPa 0,0 l/m 0 min 0 min 5 W/m 12,6 km/h (3 Bft)
09.05.2015 21:04 15,5 C 12,8 C 69 % 1019,1 hPa 0,0 l/m 0 min 0 min 2 W/m 14,6 km/h (3 Bft)
09.05.2015 21:06 15,4 C 12,8 C 70 % 1019,2 hPa 0,0 l/m 0 min 0 min 0 W/m 27,2 km/h (4 Bft)
09.05.2015 21:08 15,4 C 12,8 C 70 % 1019,2 hPa 0,0 l/m 0 min 0 min 0 W/m 23,0 km/h (4 Bft)
09.05.2015 21:10 15,3 C 12,8 C 70 % 1019,3 hPa 0,0 l/m 0 min 0 min 0 W/m 23,0 km/h (4 Bft)
09.05.2015 21:12 15,3 C 12,8 C 70 % 1019,2 hPa 0,0 l/m 0 min 0 min 0 W/m 18,8 km/h (3 Bft)
09.05.2015 21:14 15,2 C 12,8 C 70 % 1019,3 hPa 0,0 l/m 0 min 0 min 0 W/m 23,0 km/h (4 Bft)
09.05.2015 21:16 15,2 C 12,8 C 70 % 1019,3 hPa 0,0 l/m 0 min 0 min 0 W/m 35,6 km/h (5 Bft)
09.05.2015 21:18 15,2 C 12,8 C 70 % 1019,3 hPa 0,0 l/m 0 min 0 min 0 W/m 29,3 km/h (5 Bft)
09.05.2015 21:20 15,1 C 12,8 C 70 % 1019,3 hPa 0,0 l/m 0 min 2 min 0 W/m 25,1 km/h (4 Bft)
09.05.2015 21:22 15,1 C 12,8 C 70 % 1019,4 hPa 0,0 l/m 0 min 0 min 0 W/m 29,3 km/h (5 Bft)
09.05.2015 21:24 15,1 C 12,8 C 71 % 1019,4 hPa 0,0 l/m 0 min 0 min 0 W/m 27,2 km/h (4 Bft)
09.05.2015 21:26 15,1 C 12,8 C 71 % 1019,4 hPa 0,0 l/m 0 min 2 min 0 W/m 35,6 km/h (5 Bft)
09.05.2015 21:28 15,0 C 12,8 C 71 % 1019,4 hPa 0,0 l/m 0 min 0 min 0 W/m 20,9 km/h (4 Bft)
09.05.2015 21:30 14,9 C 12,8 C 72 % 1019,5 hPa 0,0 l/m 0 min 0 min 0 W/m 20,9 km/h (4 Bft)
09.05.2015 21:32 14,9 C 12,8 C 72 % 1019,5 hPa 0,0 l/m 0 min 0 min 0 W/m 23,0 km/h (4 Bft)
09.05.2015 21:34 14,9 C 12,8 C 72 % 1019,5 hPa 0,0 l/m 0 min 0 min 0 W/m 18,8 km/h (3 Bft)
09.05.2015 21:36 14,9 C 12,8 C 73 % 1019,5 hPa 0,0 l/m 0 min 0 min 0 W/m 16,7 km/h (3 Bft)
09.05.2015 21:38 14,8 C 12,2 C 73 % 1019,6 hPa 0,0 l/m 0 min 0 min 0 W/m 12,6 km/h (3 Bft)
09.05.2015 21:40 14,8 C 12,2 C 73 % 1019,7 hPa 0,0 l/m 0 min 0 min 0 W/m 10,5 km/h (2 Bft)
09.05.2015 21:42 14,8 C 12,2 C 73 % 1019,7 hPa 0,0 l/m 0 min 0 min 0 W/m 23,0 km/h (4 Bft)
09.05.2015 21:44 14,7 C 12,2 C 73 % 1019,7 hPa 0,0 l/m 0 min 0 min 0 W/m 16,7 km/h (3 Bft)
09.05.2015 21:46 14,7 C 12,2 C 74 % 1019,8 hPa 0,0 l/m 0 min 0 min 0 W/m 16,7 km/h (3 Bft)
09.05.2015 21:48 14,6 C 12,2 C 74 % 1019,8 hPa 0,0 l/m 0 min 0 min 0 W/m 18,8 km/h (3 Bft)
09.05.2015 21:50 14,6 C 12,2 C 74 % 1019,8 hPa 0,0 l/m 0 min 0 min 0 W/m 16,7 km/h (3 Bft)
09.05.2015 21:52 14,5 C 12,2 C 74 % 1019,8 hPa 0,0 l/m 0 min 0 min 0 W/m 14,6 km/h (3 Bft)
09.05.2015 21:54 14,4 C 12,2 C 74 % 1019,8 hPa 0,0 l/m 0 min 0 min 0 W/m 12,6 km/h (3 Bft)
09.05.2015 21:56 14,4 C 12,2 C 75 % 1019,8 hPa 0,0 l/m 0 min 0 min 0 W/m 16,7 km/h (3 Bft)
09.05.2015 21:58 14,3 C 12,2 C 75 % 1019,8 hPa 0,0 l/m 0 min 0 min 0 W/m 20,9 km/h (4 Bft)
09.05.2015 22:00 14,3 C 12,2 C 75 % 1019,9 hPa 0,0 l/m 0 min 0 min 0 W/m 18,8 km/h (3 Bft)
09.05.2015 22:02 14,2 C 12,2 C 75 % 1019,9 hPa 0,0 l/m 0 min 0 min 0 W/m 10,5 km/h (2 Bft)
09.05.2015 22:04 14,2 C 12,2 C 75 % 1019,9 hPa 0,0 l/m 0 min 0 min 0 W/m 8,4 km/h (2 Bft)
09.05.2015 22:06 14,2 C 12,2 C 75 % 1020,0 hPa 0,0 l/m 0 min 0 min 0 W/m 8,4 km/h (2 Bft)
09.05.2015 22:08 14,2 C 12,2 C 76 % 1020,1 hPa 0,0 l/m 0 min 0 min 0 W/m 12,6 km/h (3 Bft)
09.05.2015 22:10 14,2 C 12,2 C 76 % 1020,1 hPa 0,0 l/m 0 min 0 min 0 W/m 14,6 km/h (3 Bft)
09.05.2015 22:12 14,2 C 12,2 C 76 % 1020,3 hPa 0,0 l/m 0 min 0 min 0 W/m 16,7 km/h (3 Bft)
09.05.2015 22:14 14,2 C 12,2 C 76 % 1020,4 hPa 0,0 l/m 0 min 0 min 0 W/m 8,4 km/h (2 Bft)
09.05.2015 22:16 14,2 C 12,2 C 76 % 1020,4 hPa 0,0 l/m 0 min 0 min 0 W/m 10,5 km/h (2 Bft)
09.05.2015 22:18 14,2 C 12,2 C 76 % 1020,4 hPa 0,0 l/m 0 min 0 min 0 W/m 8,4 km/h (2 Bft)
09.05.2015 22:20 14,1 C 12,2 C 77 % 1020,5 hPa 0,0 l/m 0 min 0 min 0 W/m 10,5 km/h (2 Bft)
09.05.2015 22:22 14,1 C 12,2 C 77 % 1020,5 hPa 0,0 l/m 0 min 0 min 0 W/m 10,5 km/h (2 Bft)
09.05.2015 22:24 14,1 C 12,2 C 77 % 1020,5 hPa 0,0 l/m 0 min 0 min 0 W/m 12,6 km/h (3 Bft)
09.05.2015 22:26 14,1 C 12,2 C 77 % 1020,5 hPa 0,0 l/m 0 min 0 min 0 W/m 10,5 km/h (2 Bft)
09.05.2015 22:28 14,0 C 12,2 C 77 % 1020,5 hPa 0,0 l/m 0 min 0 min 0 W/m 16,7 km/h (3 Bft)
09.05.2015 22:30 14,0 C 12,2 C 77 % 1020,5 hPa 0,0 l/m 0 min 0 min 0 W/m 12,6 km/h (3 Bft)
09.05.2015 22:32 14,0 C 12,2 C 77 % 1020,4 hPa 0,0 l/m 0 min 0 min 0 W/m 10,5 km/h (2 Bft)
09.05.2015 22:34 13,9 C 12,2 C 77 % 1020,4 hPa 0,0 l/m 0 min 0 min 0 W/m 6,3 km/h (2 Bft)
09.05.2015 22:36 13,9 C 12,2 C 78 % 1020,4 hPa 0,0 l/m 0 min 0 min 0 W/m 10,5 km/h (2 Bft)
09.05.2015 22:38 13,9 C 12,2 C 78 % 1020,4 hPa 0,0 l/m 0 min 0 min 0 W/m 8,4 km/h (2 Bft)
09.05.2015 22:40 13,9 C 12,2 C 78 % 1020,3 hPa 0,0 l/m 0 min 0 min 0 W/m 10,5 km/h (2 Bft)
09.05.2015 22:42 13,9 C 12,2 C 78 % 1020,3 hPa 0,0 l/m 0 min 0 min 0 W/m 12,6 km/h (3 Bft)
09.05.2015 22:44 13,9 C 12,2 C 78 % 1020,2 hPa 0,0 l/m 0 min 0 min 0 W/m 8,4 km/h (2 Bft)
09.05.2015 22:46 13,9 C 12,2 C 78 % 1020,2 hPa 0,0 l/m 0 min 0 min 0 W/m 14,6 km/h (3 Bft)
09.05.2015 22:48 13,9 C 12,2 C 78 % 1020,3 hPa 0,0 l/m 0 min 0 min 0 W/m 10,5 km/h (2 Bft)
09.05.2015 22:50 13,8 C 11,7 C 78 % 1020,3 hPa 0,0 l/m 0 min 0 min 0 W/m 12,6 km/h (3 Bft)
09.05.2015 22:52 13,8 C 11,7 C 78 % 1020,3 hPa 0,0 l/m 0 min 0 min 0 W/m 14,6 km/h (3 Bft)
09.05.2015 22:54 13,8 C 11,7 C 78 % 1020,3 hPa 0,0 l/m 0 min 0 min 0 W/m 14,6 km/h (3 Bft)
09.05.2015 22:56 13,7 C 11,7 C 78 % 1020,3 hPa 0,0 l/m 0 min 0 min 0 W/m 16,7 km/h (3 Bft)
09.05.2015 22:58 13,7 C 11,7 C 78 % 1020,3 hPa 0,0 l/m 0 min 0 min 0 W/m 14,6 km/h (3 Bft)
09.05.2015 23:00 13,7 C 11,7 C 78 % 1020,3 hPa 0,0 l/m 0 min 0 min 0 W/m 8,4 km/h (2 Bft)
09.05.2015 23:02 13,7 C 11,7 C 78 % 1020,4 hPa 0,0 l/m 0 min 0 min 0 W/m 8,4 km/h (2 Bft)
09.05.2015 23:04 13,7 C 11,7 C 78 % 1020,4 hPa 0,0 l/m 0 min 0 min 0 W/m 10,5 km/h (2 Bft)
09.05.2015 23:06 13,6 C 11,7 C 78 % 1020,4 hPa 0,0 l/m 0 min 0 min 0 W/m 12,6 km/h (3 Bft)
09.05.2015 23:08 13,6 C 11,7 C 78 % 1020,4 hPa 0,0 l/m 0 min 0 min 0 W/m 8,4 km/h (2 Bft)
09.05.2015 23:10 13,6 C 11,7 C 78 % 1020,4 hPa 0,0 l/m 0 min 0 min 0 W/m 12,6 km/h (3 Bft)
09.05.2015 23:12 13,6 C 11,7 C 78 % 1020,5 hPa 0,0 l/m 0 min 0 min 0 W/m 14,6 km/h (3 Bft)
09.05.2015 23:14 13,5 C 11,7 C 78 % 1020,5 hPa 0,0 l/m 0 min 0 min 0 W/m 16,7 km/h (3 Bft)
09.05.2015 23:16 13,5 C 11,7 C 78 % 1020,5 hPa 0,0 l/m 0 min 0 min 0 W/m 16,7 km/h (3 Bft)
09.05.2015 23:18 13,4 C 11,7 C 78 % 1020,5 hPa 0,0 l/m 0 min 0 min 0 W/m 18,8 km/h (3 Bft)
09.05.2015 23:20 13,4 C 11,7 C 78 % 1020,5 hPa 0,0 l/m 0 min 0 min 0 W/m 18,8 km/h (3 Bft)
09.05.2015 23:22 13,4 C 11,7 C 78 % 1020,5 hPa 0,0 l/m 0 min 0 min 0 W/m 16,7 km/h (3 Bft)
09.05.2015 23:24 13,4 C 11,7 C 78 % 1020,6 hPa 0,0 l/m 0 min 0 min 0 W/m 20,9 km/h (4 Bft)
09.05.2015 23:26 13,4 C 11,7 C 79 % 1020,5 hPa 0,0 l/m 0 min 0 min 0 W/m 16,7 km/h (3 Bft)
09.05.2015 23:28 13,4 C 11,7 C 78 % 1020,6 hPa 0,0 l/m 0 min 0 min 0 W/m 14,6 km/h (3 Bft)
09.05.2015 23:30 13,3 C 11,7 C 79 % 1020,6 hPa 0,0 l/m 0 min 0 min 0 W/m 14,6 km/h (3 Bft)
09.05.2015 23:32 13,3 C 11,7 C 79 % 1020,6 hPa 0,0 l/m 0 min 0 min 0 W/m 16,7 km/h (3 Bft)
09.05.2015 23:34 13,3 C 11,7 C 79 % 1020,6 hPa 0,0 l/m 0 min 0 min 0 W/m 18,8 km/h (3 Bft)
09.05.2015 23:36 13,3 C 11,7 C 79 % 1020,6 hPa 0,0 l/m 0 min 0 min 0 W/m 12,6 km/h (3 Bft)
09.05.2015 23:38 13,3 C 11,7 C 79 % 1020,5 hPa 0,0 l/m 0 min 0 min 0 W/m 12,6 km/h (3 Bft)
09.05.2015 23:40 13,3 C 11,7 C 79 % 1020,5 hPa 0,0 l/m 0 min 0 min 0 W/m 14,6 km/h (3 Bft)
09.05.2015 23:42 13,3 C 11,7 C 79 % 1020,6 hPa 0,0 l/m 0 min 0 min 0 W/m 12,6 km/h (3 Bft)
09.05.2015 23:44 13,3 C 11,7 C 79 % 1020,6 hPa 0,0 l/m 0 min 0 min 0 W/m 12,6 km/h (3 Bft)
09.05.2015 23:46 13,2 C 11,7 C 79 % 1020,6 hPa 0,0 l/m 0 min 0 min 0 W/m 6,3 km/h (2 Bft)
09.05.2015 23:48 13,2 C 11,1 C 79 % 1020,7 hPa 0,0 l/m 0 min 0 min 0 W/m 18,8 km/h (3 Bft)
09.05.2015 23:50 13,2 C 11,1 C 79 % 1020,7 hPa 0,0 l/m 0 min 0 min 0 W/m 14,6 km/h (3 Bft)
09.05.2015 23:52 13,2 C 11,1 C 79 % 1020,7 hPa 0,0 l/m 0 min 0 min 0 W/m 14,6 km/h (3 Bft)
09.05.2015 23:54 13,2 C 11,1 C 80 % 1020,7 hPa 0,0 l/m 0 min 0 min 0 W/m 14,6 km/h (3 Bft)
09.05.2015 23:56 13,1 C 11,1 C 80 % 1020,7 hPa 0,0 l/m 0 min 0 min 0 W/m 12,6 km/h (3 Bft)
09.05.2015 23:58 13,1 C 11,1 C 80 % 1020,8 hPa 0,0 l/m 0 min 0 min 0 W/m 18,8 km/h (3 Bft)
_ Min-Zeit 23:56 23:48 16:04 03:40 - - - - 00:24
Minimum _ 13,1 C 11,1 C 54 % 1013,3 hPa - - - - 6,3 km/h (2 Bft)
_ Max-Zeit 12:02 13:32 07:08 23:58 00:00 09:26 01:30 13:48 12:50
Maximum _ 20,1 C 18,3 C 84 % 1020,8 hPa 0,0 l/m 2 min 2 min 1037 W/m 52,3 km/h
W-SW (7 Bft)
Durchschnitt _ 16,3 C 14,0 C 70 % 1016,1 hPa #0,0 l/m #4:58 h #56 min. 286 W/m 23,2 km/h (4 Bft)
© 2015 W. Hausmann